Time,TemperatureF,DewpointF,PressureIn,WindDirection,WindDirectionDegrees,WindSpeedMPH,WindSpeedGustMPH,Humidity,HourlyPrecipIn,Conditions,Clouds,dailyrainin,SoftwareType,DateUTC
2013-01-23 06:43:00,14.3,4.7,30.39,WNW,289,10.0,0.0,65,0.00,CLR,,0.00,WeatherDisplay:10.37,2013-01-23 11:43:00,
2013-01-23 06:48:00,13.9,4.6,30.39,WNW,289,0.0,0.0,66,0.00,CLR,,0.00,WeatherDisplay:10.37,2013-01-23 11:48:00,
2013-01-23 06:53:00,13.7,5.1,30.39,WNW,289,0.0,0.0,68,0.00,CLR,,0.00,WeatherDisplay:10.37,2013-01-23 11:53:00,
2013-01-23 06:54:00,13.6,5.0,30.39,WNW,289,0.0,0.0,68,0.00,CLR,,0.00,WeatherDisplay:10.37,2013-01-23 11:54:00,
2013-01-23 06:58:00,13.4,4.8,30.39,WNW,290,0.0,0.0,68,0.00,CLR,,0.00,WeatherDisplay:10.37,2013-01-23 11:58:00,
2013-01-23 06:59:00,13.4,4.8,30.39,WNW,289,0.0,0.0,68,0.00,CLR,,0.00,WeatherDisplay:10.37,2013-01-23 11:59:00,
2013-01-23 07:03:00,13.2,4.9,30.39,WNW,289,0.0,0.0,69,0.00,CLR,,0.00,WeatherDisplay:10.37,2013-01-23 12:03:00,
2013-01-23 07:04:00,13.2,4.9,30.39,WNW,290,0.0,0.0,69,0.00,CLR,,0.00,WeatherDisplay:10.37,2013-01-23 12:04:00,
2013-01-23 07:05:00,13.2,4.9,30.39,WNW,289,0.0,0.0,69,0.00,CLR,,0.00,WeatherDisplay:10.37,2013-01-23 12:05:00,
2013-01-23 07:09:00,13.0,5.0,30.40,WNW,289,0.0,0.0,70,0.00,CLR,,0.00,WeatherDisplay:10.37,2013-01-23 12:09:00,
2013-01-23 07:10:00,13.0,5.0,30.40,WNW,289,0.0,0.0,70,0.00,CLR,,0.00,WeatherDisplay:10.37,2013-01-23 12:10:00,
2013-01-23 07:14:00,12.9,5.0,30.40,WNW,289,0.0,0.0,70,0.00,CLR,,0.00,WeatherDisplay:10.37,2013-01-23 12:14:00,
2013-01-23 07:15:00,12.9,5.3,30.40,WNW,290,0.0,0.0,71,0.00,CLR,,0.00,WeatherDisplay:10.37,2013-01-23 12:15:00,
2013-01-23 07:19:00,12.9,5.3,30.40,WNW,289,0.0,0.0,71,0.00,CLR,,0.00,WeatherDisplay:10.37,2013-01-23 12:19:00,
2013-01-23 07:20:00,12.9,5.3,30.40,WNW,289,0.0,0.0,71,0.00,CLR,,0.00,WeatherDisplay:10.37,2013-01-23 12:20:00,
2013-01-23 07:24:00,12.8,4.9,30.40,WNW,289,0.0,0.0,70,0.00,CLR,,0.00,WeatherDisplay:10.37,2013-01-23 12:24:00,
2013-01-23 07:25:00,12.8,4.9,30.40,WNW,289,0.0,0.0,70,0.00,CLR,,0.00,WeatherDisplay:10.37,2013-01-23 12:25:00,
2013-01-23 07:29:00,13.0,5.4,30.40,WNW,289,0.0,0.0,71,0.00,CLR,,0.00,WeatherDisplay:10.37,2013-01-23 12:29:00,
2013-01-23 07:30:00,13.0,5.3,30.40,WNW,289,0.0,1.0,71,0.00,CLR,,0.00,WeatherDisplay:10.37,2013-01-23 12:30:00,
2013-01-23 07:34:00,13.7,5.7,30.40,WNW,289,0.0,0.0,70,0.00,CLR,,0.00,WeatherDisplay:10.37,2013-01-23 12:34:00,
2013-01-23 07:35:00,13.6,5.7,30.40,WNW,289,0.0,1.0,70,0.00,CLR,,0.00,WeatherDisplay:10.37,2013-01-23 12:35:00,
2013-01-23 07:40:00,14.1,5.8,30.40,WNW,289,0.0,0.0,69,0.00,CLR,,0.00,WeatherDisplay:10.37,2013-01-23 12:40:00,
2013-01-23 07:45:00,14.8,5.8,30.40,WNW,289,0.0,1.0,67,0.00,CLR,,0.00,WeatherDisplay:10.37,2013-01-23 12:45:00,
2013-01-23 07:46:00,15.0,6.0,30.40,WNW,290,0.0,0.0,67,0.00,CLR,,0.00,WeatherDisplay:10.37,2013-01-23 12:46:00,
2013-01-23 07:50:00,15.4,6.4,30.40,WNW,289,0.0,0.0,67,0.00,CLR,,0.00,WeatherDisplay:10.37,2013-01-23 12:50:00,
2013-01-23 07:52:00,15.7,6.7,30.40,WNW,289,0.0,0.0,67,0.00,CLR,,0.00,WeatherDisplay:10.37,2013-01-23 12:52:00,
2013-01-23 07:55:00,15.9,6.9,30.40,WNW,289,0.0,0.0,67,0.00,CLR,,0.00,WeatherDisplay:10.37,2013-01-23 12:55:00,
2013-01-23 07:56:00,16.1,7.1,30.40,WNW,289,0.0,0.1,67,0.00,CLR,,0.00,WeatherDisplay:10.37,2013-01-23 12:56:00,
2013-01-23 07:58:00,16.2,7.2,30.40,WNW,289,1.1,1.1,67,0.00,CLR,,0.00,WeatherDisplay:10.37,2013-01-23 12:58:00,
2013-01-23 08:00:00,16.4,7.0,30.40,WNW,289,0.0,0.0,66,0.00,CLR,,0.00,WeatherDisplay:10.37,2013-01-23 13:00:00,
2013-01-23 08:01:00,16.5,7.1,30.40,WNW,289,0.0,0.1,66,0.00,CLR,,0.00,WeatherDisplay:10.37,2013-01-23 13:01:00,
2013-01-23 08:02:00,16.5,7.1,30.40,WNW,289,1.1,1.1,66,0.00,CLR,,0.00,WeatherDisplay:10.37,2013-01-23 13:02:00,
2013-01-23 08:03:00,16.6,6.9,30.40,WNW,289,1.1,0.0,65,0.00,CLR,,0.00,WeatherDisplay:10.37,2013-01-23 13:03:00,
2013-01-23 08:05:00,16.8,6.7,30.40,West,275,0.0,0.0,64,0.00,CLR,,0.00,WeatherDisplay:10.37,2013-01-23 13:05:00,
2013-01-23 08:07:00,17.0,6.9,30.40,West,276,1.1,0.0,64,0.00,CLR,,0.00,WeatherDisplay:10.37,2013-01-23 13:07:00,
2013-01-23 08:08:00,17.0,6.9,30.40,West,275,1.1,0.0,64,0.00,CLR,,0.00,WeatherDisplay:10.37,2013-01-23 13:08:00,
2013-01-23 08:09:00,17.1,7.0,30.40,West,272,1.1,1.1,64,0.00,CLR,,0.00,WeatherDisplay:10.37,2013-01-23 13:09:00,
2013-01-23 08:10:00,17.3,7.2,30.40,WSW,256,2.0,2.0,64,0.00,CLR,,0.00,WeatherDisplay:10.37,2013-01-23 13:10:00,
2013-01-23 08:13:00,17.6,6.8,30.40,West,264,3.5,3.5,62,0.00,CLR,,0.00,WeatherDisplay:10.37,2013-01-23 13:13:00,
2013-01-23 08:14:00,17.7,6.5,30.40,West,261,2.3,2.3,61,0.00,CLR,,0.00,WeatherDisplay:10.37,2013-01-23 13:14:00,
2013-01-23 08:15:00,17.9,6.7,30.40,West,261,2.3,2.3,61,0.00,CLR,,0.00,WeatherDisplay:10.37,2013-01-23 13:15:00,
2013-01-23 08:18:00,18.2,7.0,30.40,West,267,1.1,1.1,61,0.00,CLR,,0.00,WeatherDisplay:10.37,2013-01-23 13:18:00,
2013-01-23 08:20:00,18.4,6.4,30.40,WSW,253,2.3,2.3,59,0.00,CLR,,0.00,WeatherDisplay:10.37,2013-01-23 13:20:00,
2013-01-23 08:23:00,18.6,6.3,30.40,WSW,257,3.5,3.5,58,0.00,CLR,,0.00,WeatherDisplay:10.37,2013-01-23 13:23:00,
2013-01-23 08:25:00,18.8,6.4,30.40,West,279,3.5,3.5,58,0.00,CLR,,0.00,WeatherDisplay:10.37,2013-01-23 13:25:00,
2013-01-23 08:28:00,19.0,6.6,30.40,WSW,240,3.5,3.5,58,0.00,CLR,,0.00,WeatherDisplay:10.37,2013-01-23 13:28:00,
2013-01-23 08:30:00,19.2,6.1,30.40,West,275,3.5,3.5,56,0.00,CLR,,0.00,WeatherDisplay:10.37,2013-01-23 13:30:00,
2013-01-23 08:31:00,19.2,6.1,30.40,West,264,1.1,1.1,56,0.00,CLR,,0.00,WeatherDisplay:10.37,2013-01-23 13:31:00,
2013-01-23 08:33:00,19.4,6.6,30.40,WNW,296,7.0,7.0,57,0.00,CLR,,0.00,WeatherDisplay:10.37,2013-01-23 13:33:00,
2013-01-23 08:34:00,19.4,6.2,30.40,West,271,6.9,6.9,56,0.00,CLR,,0.00,WeatherDisplay:10.37,2013-01-23 13:34:00,
2013-01-23 08:36:00,19.6,6.0,30.40,West,261,6.9,6.9,55,0.00,CLR,,0.00,WeatherDisplay:10.37,2013-01-23 13:36:00,
2013-01-23 08:37:00,19.6,6.0,30.40,WSW,251,6.9,6.9,55,0.00,CLR,,0.00,WeatherDisplay:10.37,2013-01-23 13:37:00,
2013-01-23 08:38:00,19.7,5.7,30.40,WSW,251,4.6,4.6,54,0.00,CLR,,0.00,WeatherDisplay:10.37,2013-01-23 13:38:00,
2013-01-23 08:39:00,19.7,5.7,30.40,WSW,248,6.9,6.9,54,0.00,CLR,,0.00,WeatherDisplay:10.37,2013-01-23 13:39:00,
2013-01-23 08:41:00,19.8,5.4,30.40,West,267,5.8,5.8,53,0.00,CLR,,0.00,WeatherDisplay:10.37,2013-01-23 13:41:00,
2013-01-23 08:42:00,19.9,5.9,30.40,West,262,2.3,2.3,54,0.00,CLR,,0.00,WeatherDisplay:10.37,2013-01-23 13:42:00,
2013-01-23 08:43:00,20.0,6.0,30.40,WSW,258,3.5,3.5,54,0.00,CLR,,0.00,WeatherDisplay:10.37,2013-01-23 13:43:00,
2013-01-23 08:44:00,20.0,6.4,30.40,WSW,237,2.3,2.3,55,0.00,CLR,,0.00,WeatherDisplay:10.37,2013-01-23 13:44:00,
2013-01-23 08:46:00,20.1,6.5,30.40,WSW,257,5.8,5.8,55,0.00,CLR,,0.00,WeatherDisplay:10.37,2013-01-23 13:46:00,
2013-01-23 08:48:00,20.2,5.8,30.40,WSW,258,6.9,6.9,53,0.00,CLR,,0.00,WeatherDisplay:10.37,2013-01-23 13:48:00,
2013-01-23 08:49:00,20.2,5.8,30.40,WSW,248,6.0,6.0,53,0.00,CLR,,0.00,WeatherDisplay:10.37,2013-01-23 13:49:00,
2013-01-23 08:51:00,20.3,5.9,30.40,WSW,255,3.5,3.5,53,0.00,CLR,,0.00,WeatherDisplay:10.37,2013-01-23 13:51:00,
2013-01-23 08:53:00,20.4,6.0,30.40,WSW,243,3.5,3.5,53,0.00,CLR,,0.00,WeatherDisplay:10.37,2013-01-23 13:53:00,
2013-01-23 08:54:00,20.4,5.5,30.40,WSW,238,3.5,4.4,52,0.00,CLR,,0.00,WeatherDisplay:10.37,2013-01-23 13:54:00,
2013-01-23 08:56:00,20.5,5.2,30.40,WSW,250,5.8,5.8,51,0.00,CLR,,0.00,WeatherDisplay:10.37,2013-01-23 13:56:00,
2013-01-23 08:58:00,20.6,5.3,30.40,SW,232,3.5,3.5,51,0.00,CLR,,0.00,WeatherDisplay:10.37,2013-01-23 13:58:00,
2013-01-23 09:00:00,20.6,5.3,30.41,West,260,6.9,6.9,51,0.00,CLR,,0.00,WeatherDisplay:10.37,2013-01-23 14:00:00,
2013-01-23 09:01:00,20.7,5.0,30.41,SW,229,8.1,8.1,50,0.00,CLR,,0.00,WeatherDisplay:10.37,2013-01-23 14:01:00,
2013-01-23 09:04:00,20.8,4.6,30.40,WNW,283,8.1,8.1,49,0.00,CLR,,0.00,WeatherDisplay:10.37,2013-01-23 14:04:00,
2013-01-23 09:05:00,20.8,4.6,30.41,WSW,248,9.2,9.2,49,0.00,CLR,,0.00,WeatherDisplay:10.37,2013-01-23 14:05:00,
2013-01-23 09:06:00,20.9,4.7,30.41,West,261,7.0,7.0,49,0.00,CLR,,0.00,WeatherDisplay:10.37,2013-01-23 14:06:00,
2013-01-23 09:09:00,20.9,5.2,30.41,WSW,248,7.0,7.0,50,0.00,CLR,,0.00,WeatherDisplay:10.37,2013-01-23 14:09:00,
2013-01-23 09:10:00,21.0,4.8,30.41,SW,236,4.0,4.0,49,0.00,CLR,,0.00,WeatherDisplay:10.37,2013-01-23 14:10:00,
2013-01-23 09:12:00,21.0,4.8,30.41,WSW,258,6.9,6.9,49,0.00,CLR,,0.00,WeatherDisplay:10.37,2013-01-23 14:12:00,
2013-01-23 09:14:00,21.0,4.4,30.41,WSW,256,11.5,11.5,48,0.00,CLR,,0.00,WeatherDisplay:10.37,2013-01-23 14:14:00,
2013-01-23 09:15:00,21.1,4.4,30.41,WSW,238,9.2,9.2,48,0.00,CLR,,0.00,WeatherDisplay:10.37,2013-01-23 14:15:00,
2013-01-23 09:17:00,21.1,5.3,30.41,NW,307,9.2,9.2,50,0.00,CLR,,0.00,WeatherDisplay:10.37,2013-01-23 14:17:00,
2013-01-23 09:19:00,21.2,5.0,30.41,WSW,257,8.1,8.1,49,0.00,CLR,,0.00,WeatherDisplay:10.37,2013-01-23 14:19:00,
2013-01-23 09:20:00,21.3,4.6,30.41,SW,231,8.1,8.1,48,0.00,CLR,,0.00,WeatherDisplay:10.37,2013-01-23 14:20:00,
2013-01-23 09:21:00,21.3,4.6,30.41,SW,235,8.1,8.1,48,0.00,CLR,,0.00,WeatherDisplay:10.37,2013-01-23 14:21:00,
2013-01-23 09:22:00,21.3,5.1,30.41,NW,314,12.0,12.0,49,0.00,CLR,,0.00,WeatherDisplay:10.37,2013-01-23 14:22:00,
2013-01-23 09:24:00,21.4,4.7,30.41,WNW,303,6.9,6.9,48,0.00,CLR,,0.00,WeatherDisplay:10.37,2013-01-23 14:24:00,
2013-01-23 09:25:00,21.4,4.7,30.41,WSW,240,9.2,9.2,48,0.00,CLR,,0.00,WeatherDisplay:10.37,2013-01-23 14:25:00,
2013-01-23 09:26:00,21.5,4.8,30.41,WSW,245,4.6,4.6,48,0.00,CLR,,0.00,WeatherDisplay:10.37,2013-01-23 14:26:00,
2013-01-23 09:27:00,21.5,4.8,30.41,West,260,3.0,3.0,48,0.00,CLR,,0.00,WeatherDisplay:10.37,2013-01-23 14:27:00,
2013-01-23 09:29:00,21.6,4.9,30.41,WSW,255,10.4,10.4,48,0.00,CLR,,0.00,WeatherDisplay:10.37,2013-01-23 14:29:00,
2013-01-23 09:31:00,21.7,5.0,30.41,WSW,255,9.2,9.2,48,0.00,CLR,,0.00,WeatherDisplay:10.37,2013-01-23 14:31:00,
2013-01-23 09:32:00,21.7,5.0,30.41,WSW,241,11.5,11.5,48,0.00,CLR,,0.00,WeatherDisplay:10.37,2013-01-23 14:32:00,
2013-01-23 09:34:00,21.8,5.1,30.41,WSW,251,5.8,5.8,48,0.00,CLR,,0.00,WeatherDisplay:10.37,2013-01-23 14:34:00,
2013-01-23 09:36:00,21.9,5.2,30.42,WSW,258,8.1,8.1,48,0.00,CLR,,0.00,WeatherDisplay:10.37,2013-01-23 14:36:00,
2013-01-23 09:37:00,21.9,4.7,30.42,WSW,248,8.1,8.1,47,0.00,CLR,,0.00,WeatherDisplay:10.37,2013-01-23 14:37:00,
2013-01-23 09:38:00,21.9,4.7,30.42,WSW,253,8.1,8.1,47,0.00,CLR,,0.00,WeatherDisplay:10.37,2013-01-23 14:38:00,
2013-01-23 09:39:00,22.0,4.8,30.42,West,262,9.2,9.2,47,0.00,CLR,,0.00,WeatherDisplay:10.37,2013-01-23 14:39:00,
2013-01-23 09:41:00,22.0,4.8,30.42,SSW,196,9.2,9.2,47,0.00,CLR,,0.00,WeatherDisplay:10.37,2013-01-23 14:41:00,
2013-01-23 09:42:00,22.1,4.9,30.42,WSW,246,8.1,8.1,47,0.00,CLR,,0.00,WeatherDisplay:10.37,2013-01-23 14:42:00,
2013-01-23 09:43:00,22.1,5.4,30.42,WSW,255,6.9,6.9,48,0.00,CLR,,0.00,WeatherDisplay:10.37,2013-01-23 14:43:00,
2013-01-23 09:45:00,22.2,5.5,30.42,WSW,257,10.4,10.4,48,0.00,CLR,,0.00,WeatherDisplay:10.37,2013-01-23 14:45:00,
2013-01-23 09:46:00,22.2,5.0,30.42,WSW,243,9.2,9.2,47,0.00,CLR,,0.00,WeatherDisplay:10.37,2013-01-23 14:46:00,
2013-01-23 09:47:00,22.2,5.0,30.42,WSW,250,10.4,10.4,47,0.00,CLR,,0.00,WeatherDisplay:10.37,2013-01-23 14:47:00,
2013-01-23 09:48:00,22.2,5.0,30.42,WSW,250,11.5,11.5,47,0.00,CLR,,0.00,WeatherDisplay:10.37,2013-01-23 14:48:00,
2013-01-23 09:50:00,22.3,5.1,30.42,WSW,243,9.2,9.2,47,0.00,CLR,,0.00,WeatherDisplay:10.37,2013-01-23 14:50:00,
2013-01-23 09:51:00,22.3,5.6,30.42,WSW,248,9.2,9.2,48,0.00,CLR,,0.00,WeatherDisplay:10.37,2013-01-23 14:51:00,
2013-01-23 09:53:00,22.4,5.2,30.42,WSW,251,8.1,8.1,47,0.00,CLR,,0.00,WeatherDisplay:10.37,2013-01-23 14:53:00,
2013-01-23 09:56:00,22.5,5.7,30.42,SW,234,8.1,8.1,48,0.00,CLR,,0.00,WeatherDisplay:10.37,2013-01-23 14:56:00,
2013-01-23 09:58:00,22.6,5.8,30.42,SW,230,8.1,8.1,48,0.00,CLR,,0.00,WeatherDisplay:10.37,2013-01-23 14:58:00,
2013-01-23 09:59:00,22.6,5.4,30.42,NW,317,10.4,10.4,47,0.00,CLR,,0.00,WeatherDisplay:10.37,2013-01-23 14:59:00,
2013-01-23 10:01:00,22.6,5.4,30.42,West,260,9.2,9.2,47,0.00,CLR,,0.00,WeatherDisplay:10.37,2013-01-23 15:01:00,
2013-01-23 10:03:00,22.7,5.5,30.42,WNW,282,11.5,11.5,47,0.00,CLR,,0.00,WeatherDisplay:10.37,2013-01-23 15:03:00,
2013-01-23 10:04:00,22.7,5.9,30.42,WSW,237,8.1,8.1,48,0.00,CLR,,0.00,WeatherDisplay:10.37,2013-01-23 15:04:00,
2013-01-23 10:06:00,22.8,6.0,30.42,WSW,256,9.2,9.2,48,0.00,CLR,,0.00,WeatherDisplay:10.37,2013-01-23 15:06:00,
2013-01-23 10:07:00,22.9,5.6,30.42,WSW,246,11.5,11.5,47,0.00,CLR,,0.00,WeatherDisplay:10.37,2013-01-23 15:07:00,
2013-01-23 10:08:00,22.9,5.6,30.42,WSW,253,8.1,8.1,47,0.00,CLR,,0.00,WeatherDisplay:10.37,2013-01-23 15:08:00,
2013-01-23 10:09:00,23.0,6.7,30.42,WNW,294,5.8,5.8,49,0.00,CLR,,0.00,WeatherDisplay:10.37,2013-01-23 15:09:00,
2013-01-23 10:11:00,23.3,7.4,30.42,WSW,250,4.6,4.6,50,0.00,CLR,,0.00,WeatherDisplay:10.37,2013-01-23 15:11:00,
2013-01-23 10:12:00,23.4,6.6,30.42,West,262,12.7,12.7,48,0.00,CLR,,0.00,WeatherDisplay:10.37,2013-01-23 15:12:00,
2013-01-23 10:13:00,23.4,6.6,30.42,SW,231,15.0,15.0,48,0.00,CLR,,0.00,WeatherDisplay:10.37,2013-01-23 15:13:00,
2013-01-23 10:14:00,23.4,6.1,30.42,WNW,299,12.7,12.7,47,0.00,CLR,,0.00,WeatherDisplay:10.37,2013-01-23 15:14:00,
2013-01-23 10:17:00,23.5,6.7,30.42,WSW,245,7.0,7.0,48,0.00,CLR,,0.00,WeatherDisplay:10.37,2013-01-23 15:17:00,
2013-01-23 10:18:00,23.5,6.7,30.42,WSW,247,6.9,6.9,48,0.00,CLR,,0.00,WeatherDisplay:10.37,2013-01-23 15:18:00,
2013-01-23 10:20:00,23.5,6.2,30.42,West,262,10.4,10.4,47,0.00,CLR,,0.00,WeatherDisplay:10.37,2013-01-23 15:20:00,
2013-01-23 10:22:00,23.6,6.8,30.42,WSW,240,6.9,6.9,48,0.00,CLR,,0.00,WeatherDisplay:10.37,2013-01-23 15:22:00,
2013-01-23 10:23:00,23.6,6.8,30.42,WSW,245,6.9,6.9,48,0.00,CLR,,0.00,WeatherDisplay:10.37,2013-01-23 15:23:00,
2013-01-23 10:26:00,23.8,6.5,30.42,SW,235,9.2,9.2,47,0.00,CLR,,0.00,WeatherDisplay:10.37,2013-01-23 15:26:00,
2013-01-23 10:28:00,23.8,6.9,30.42,SW,235,9.2,9.2,48,0.00,CLR,,0.00,WeatherDisplay:10.37,2013-01-23 15:28:00,
2013-01-23 10:31:00,24.0,7.1,30.42,WNW,300,10.4,10.4,48,0.00,CLR,,0.00,WeatherDisplay:10.37,2013-01-23 15:31:00,
2013-01-23 10:33:00,24.2,7.3,30.42,West,276,9.2,9.2,48,0.00,CLR,,0.00,WeatherDisplay:10.37,2013-01-23 15:33:00,
2013-01-23 10:34:00,24.3,8.3,30.42,WSW,247,6.9,6.9,50,0.00,CLR,,0.00,WeatherDisplay:10.37,2013-01-23 15:34:00,
2013-01-23 10:37:00,24.4,7.5,30.42,WSW,256,13.8,13.8,48,0.00,CLR,,0.00,WeatherDisplay:10.37,2013-01-23 15:37:00,
2013-01-23 10:38:00,24.4,7.5,30.42,WSW,250,11.5,11.5,48,0.00,CLR,,0.00,WeatherDisplay:10.37,2013-01-23 15:38:00,
2013-01-23 10:39:00,24.4,7.5,30.42,West,281,11.5,11.5,48,0.00,CLR,,0.00,WeatherDisplay:10.37,2013-01-23 15:39:00,
2013-01-23 10:43:00,24.5,7.6,30.42,West,262,11.5,11.5,48,0.00,CLR,,0.00,WeatherDisplay:10.37,2013-01-23 15:43:00,
2013-01-23 10:44:00,24.6,8.6,30.42,WSW,247,11.5,11.5,50,0.00,CLR,,0.00,WeatherDisplay:10.37,2013-01-23 15:44:00,
2013-01-23 10:48:00,24.8,8.3,30.42,WSW,245,6.9,6.9,49,0.00,CLR,,0.00,WeatherDisplay:10.37,2013-01-23 15:48:00,
2013-01-23 10:50:00,24.8,7.9,30.42,WSW,245,9.2,9.2,48,0.00,CLR,,0.00,WeatherDisplay:10.37,2013-01-23 15:50:00,
2013-01-23 10:53:00,24.8,7.9,30.42,WSW,258,9.2,9.2,48,0.00,CLR,,0.00,WeatherDisplay:10.37,2013-01-23 15:53:00,
2013-01-23 10:54:00,24.8,7.9,30.42,WSW,253,11.5,11.5,48,0.00,CLR,,0.00,WeatherDisplay:10.37,2013-01-23 15:54:00,
2013-01-23 10:55:00,24.8,7.9,30.42,SW,214,9.0,9.0,48,0.00,CLR,,0.00,WeatherDisplay:10.37,2013-01-23 15:55:00,
2013-01-23 10:58:00,24.9,8.0,30.41,SW,215,8.1,8.1,48,0.00,CLR,,0.00,WeatherDisplay:10.37,2013-01-23 15:58:00,
2013-01-23 10:59:00,24.9,8.4,30.41,WSW,251,8.0,8.0,49,0.00,CLR,,0.00,WeatherDisplay:10.37,2013-01-23 15:59:00,
2013-01-23 11:00:00,25.0,8.5,30.41,WSW,252,8.1,8.1,49,0.00,CLR,,0.00,WeatherDisplay:10.37,2013-01-23 16:00:00,
2013-01-23 11:03:00,25.2,8.2,30.41,WSW,253,11.5,11.5,48,0.00,CLR,,0.00,WeatherDisplay:10.37,2013-01-23 16:03:00,
2013-01-23 11:04:00,25.2,8.2,30.42,WSW,242,12.7,12.7,48,0.00,CLR,,0.00,WeatherDisplay:10.37,2013-01-23 16:04:00,
2013-01-23 11:05:00,25.2,8.2,30.41,WSW,237,9.2,9.2,48,0.00,CLR,,0.00,WeatherDisplay:10.37,2013-01-23 16:05:00,
2013-01-23 11:09:00,25.3,8.8,30.41,WSW,246,11.5,11.5,49,0.00,CLR,,0.00,WeatherDisplay:10.37,2013-01-23 16:09:00,
2013-01-23 11:10:00,25.3,8.8,30.41,West,260,11.5,11.5,49,0.00,CLR,,0.00,WeatherDisplay:10.37,2013-01-23 16:10:00,
2013-01-23 11:11:00,25.4,9.3,30.41,WSW,240,9.2,9.2,50,0.00,CLR,,0.00,WeatherDisplay:10.37,2013-01-23 16:11:00,
2013-01-23 11:14:00,25.6,9.1,30.41,West,273,10.4,10.4,49,0.00,CLR,,0.00,WeatherDisplay:10.37,2013-01-23 16:14:00,
2013-01-23 11:15:00,25.7,9.2,30.41,West,261,10.4,10.4,49,0.00,CLR,,0.00,WeatherDisplay:10.37,2013-01-23 16:15:00,
2013-01-23 11:16:00,25.8,9.7,30.41,SW,227,9.2,9.2,50,0.00,CLR,,0.00,WeatherDisplay:10.37,2013-01-23 16:16:00,
2013-01-23 11:19:00,25.8,8.8,30.40,WSW,253,10.4,10.4,48,0.00,CLR,,0.00,WeatherDisplay:10.37,2013-01-23 16:19:00,
2013-01-23 11:20:00,25.8,9.2,30.41,WSW,241,12.7,12.7,49,0.00,CLR,,0.00,WeatherDisplay:10.37,2013-01-23 16:20:00,
2013-01-23 11:21:00,25.8,8.8,30.41,WSW,241,11.5,11.5,48,0.00,CLR,,0.00,WeatherDisplay:10.37,2013-01-23 16:21:00,
2013-01-23 11:24:00,25.8,8.8,30.40,SSW,210,10.4,10.4,48,0.00,CLR,,0.00,WeatherDisplay:10.37,2013-01-23 16:24:00,
2013-01-23 11:26:00,25.9,9.3,30.41,West,263,8.1,8.1,49,0.00,CLR,,0.00,WeatherDisplay:10.37,2013-01-23 16:26:00,
2013-01-23 11:27:00,26.0,9.4,30.40,SSW,212,8.1,8.1,49,0.00,CLR,,0.00,WeatherDisplay:10.37,2013-01-23 16:27:00,
2013-01-23 11:29:00,26.4,9.8,30.40,WSW,258,8.1,8.1,49,0.00,CLR,,0.00,WeatherDisplay:10.37,2013-01-23 16:29:00,
2013-01-23 11:31:00,26.7,10.1,30.40,NW,309,12.0,12.0,49,0.00,CLR,,0.00,WeatherDisplay:10.37,2013-01-23 16:31:00,
2013-01-23 11:32:00,26.9,10.3,30.40,WSW,252,17.3,17.3,49,0.00,CLR,,0.00,WeatherDisplay:10.37,2013-01-23 16:32:00,
2013-01-23 11:34:00,26.9,9.8,30.40,WSW,254,11.5,11.5,48,0.00,CLR,,0.00,WeatherDisplay:10.37,2013-01-23 16:34:00,
2013-01-23 11:36:00,27.1,10.4,30.40,WSW,258,9.0,9.0,49,0.00,CLR,,0.00,WeatherDisplay:10.37,2013-01-23 16:36:00,
2013-01-23 11:37:00,27.1,10.4,30.40,WNW,295,9.2,9.2,49,0.00,CLR,,0.00,WeatherDisplay:10.37,2013-01-23 16:37:00,
2013-01-23 11:39:00,27.3,10.2,30.40,West,274,9.2,9.2,48,0.00,CLR,,0.00,WeatherDisplay:10.37,2013-01-23 16:39:00,
2013-01-23 11:42:00,27.4,10.3,30.39,West,265,9.2,9.2,48,0.00,CLR,,0.00,WeatherDisplay:10.37,2013-01-23 16:42:00,
2013-01-23 11:43:00,27.5,10.4,30.39,WSW,253,10.4,10.4,48,0.00,CLR,,0.00,WeatherDisplay:10.37,2013-01-23 16:43:00,
2013-01-23 11:44:00,27.7,10.5,30.39,WSW,243,8.1,8.1,48,0.00,CLR,,0.00,WeatherDisplay:10.37,2013-01-23 16:44:00,
2013-01-23 11:47:00,27.8,11.1,30.39,WSW,240,11.5,11.5,49,0.00,CLR,,0.00,WeatherDisplay:10.37,2013-01-23 16:47:00,
2013-01-23 11:48:00,27.8,10.2,30.39,NW,316,11.5,11.5,47,0.00,CLR,,0.00,WeatherDisplay:10.37,2013-01-23 16:48:00,
2013-01-23 11:50:00,27.8,10.6,30.39,WSW,253,6.0,13.0,48,0.00,CLR,,0.00,WeatherDisplay:10.37,2013-01-23 16:50:00,
2013-01-23 11:52:00,27.8,11.1,30.38,West,265,10.4,10.4,49,0.00,CLR,,0.00,WeatherDisplay:10.37,2013-01-23 16:52:00,
2013-01-23 11:53:00,27.7,10.1,30.38,WSW,257,7.0,7.0,47,0.00,CLR,,0.00,WeatherDisplay:10.37,2013-01-23 16:53:00,
2013-01-23 11:55:00,27.7,10.5,30.38,WSW,250,7.0,14.0,48,0.00,CLR,,0.00,WeatherDisplay:10.37,2013-01-23 16:55:00,
2013-01-23 11:58:00,27.8,11.1,30.38,WSW,237,9.2,9.2,49,0.00,CLR,,0.00,WeatherDisplay:10.37,2013-01-23 16:58:00,
2013-01-23 12:00:00,27.8,10.2,30.38,WSW,245,11.5,11.5,47,0.00,CLR,,0.00,WeatherDisplay:10.37,2013-01-23 17:00:00,
2013-01-23 12:03:00,28.0,11.3,30.38,WSW,245,4.6,4.6,49,0.00,CLR,,0.00,WeatherDisplay:10.37,2013-01-23 17:03:00,
2013-01-23 12:04:00,28.1,11.4,30.37,West,272,5.0,5.0,49,0.00,CLR,,0.00,WeatherDisplay:10.37,2013-01-23 17:04:00,
2013-01-23 12:05:00,28.3,11.1,30.37,West,273,7.0,7.0,48,0.00,CLR,,0.00,WeatherDisplay:10.37,2013-01-23 17:05:00,
2013-01-23 12:08:00,28.5,11.3,30.37,WSW,245,10.4,10.4,48,0.00,CLR,,0.00,WeatherDisplay:10.37,2013-01-23 17:08:00,
2013-01-23 12:09:00,28.5,11.3,30.37,West,271,10.4,10.4,48,0.00,CLR,,0.00,WeatherDisplay:10.37,2013-01-23 17:09:00,
2013-01-23 12:10:00,28.6,11.4,30.37,SW,236,5.0,5.0,48,0.00,CLR,,0.00,WeatherDisplay:10.37,2013-01-23 17:10:00,
2013-01-23 12:13:00,28.8,11.6,30.37,WSW,250,8.1,8.1,48,0.00,CLR,,0.00,WeatherDisplay:10.37,2013-01-23 17:13:00,
2013-01-23 12:14:00,28.8,11.6,30.36,West,262,8.1,8.1,48,0.00,CLR,,0.00,WeatherDisplay:10.37,2013-01-23 17:14:00,
2013-01-23 12:15:00,28.9,11.6,30.36,West,267,9.2,9.2,48,0.00,CLR,,0.00,WeatherDisplay:10.37,2013-01-23 17:15:00,
2013-01-23 12:18:00,28.8,11.6,30.36,SSE,165,9.2,9.2,48,0.00,CLR,,0.00,WeatherDisplay:10.37,2013-01-23 17:18:00,
2013-01-23 12:19:00,28.8,11.6,30.36,WSW,245,12.7,12.7,48,0.00,CLR,,0.00,WeatherDisplay:10.37,2013-01-23 17:19:00,
2013-01-23 12:20:00,28.8,11.6,30.36,WNW,289,10.4,10.4,48,0.00,CLR,,0.00,WeatherDisplay:10.37,2013-01-23 17:20:00,
2013-01-23 12:24:00,29.3,12.0,30.36,West,259,8.1,8.1,48,0.00,CLR,,0.00,WeatherDisplay:10.37,2013-01-23 17:24:00,
2013-01-23 12:25:00,29.4,12.6,30.36,NW,323,9.2,9.2,49,0.00,CLR,,0.00,WeatherDisplay:10.37,2013-01-23 17:25:00,
2013-01-23 12:29:00,29.5,11.2,30.35,WNW,296,6.9,6.9,46,0.00,CLR,,0.00,WeatherDisplay:10.37,2013-01-23 17:29:00,
2013-01-23 12:31:00,29.4,11.6,30.35,WSW,247,8.1,8.1,47,0.00,CLR,,0.00,WeatherDisplay:10.37,2013-01-23 17:31:00,
2013-01-23 12:34:00,29.3,11.5,30.35,WSW,240,4.6,4.6,47,0.00,CLR,,0.00,WeatherDisplay:10.37,2013-01-23 17:34:00,
2013-01-23 12:36:00,29.5,12.2,30.35,WSW,254,10.4,10.4,48,0.00,CLR,,0.00,WeatherDisplay:10.37,2013-01-23 17:36:00,
2013-01-23 12:39:00,29.6,12.3,30.35,West,272,6.9,6.9,48,0.00,CLR,,0.00,WeatherDisplay:10.37,2013-01-23 17:39:00,
2013-01-23 12:41:00,29.8,12.5,30.34,West,264,8.1,8.1,48,0.00,CLR,,0.00,WeatherDisplay:10.37,2013-01-23 17:41:00,
2013-01-23 12:44:00,29.8,12.5,30.34,WNW,295,8.1,8.1,48,0.00,CLR,,0.00,WeatherDisplay:10.37,2013-01-23 17:44:00,
2013-01-23 12:47:00,29.9,12.1,30.34,WSW,238,11.5,11.5,47,0.00,CLR,,0.00,WeatherDisplay:10.37,2013-01-23 17:47:00,
2013-01-23 12:49:00,29.7,12.4,30.34,WSW,252,9.0,9.0,48,0.00,CLR,,0.00,WeatherDisplay:10.37,2013-01-23 17:49:00,
2013-01-23 12:50:00,29.8,12.4,30.34,West,265,5.0,13.0,48,0.00,CLR,,0.00,WeatherDisplay:10.37,2013-01-23 17:50:00,
2013-01-23 12:52:00,29.9,13.0,30.33,WSW,245,8.1,8.1,49,0.00,CLR,,0.00,WeatherDisplay:10.37,2013-01-23 17:52:00,
2013-01-23 12:53:00,30.0,13.1,30.33,WSW,241,8.1,8.1,49,0.00,CLR,,0.00,WeatherDisplay:10.37,2013-01-23 17:53:00,
2013-01-23 12:55:00,30.3,12.9,30.33,SW,235,9.2,9.2,48,0.00,CLR,,0.00,WeatherDisplay:10.37,2013-01-23 17:55:00,
2013-01-23 12:57:00,30.4,13.0,30.33,WNW,283,8.1,8.1,48,0.00,CLR,,0.00,WeatherDisplay:10.37,2013-01-23 17:57:00,
2013-01-23 12:58:00,30.4,13.0,30.33,WSW,258,11.5,11.5,48,0.00,CLR,,0.00,WeatherDisplay:10.37,2013-01-23 17:58:00,
2013-01-23 13:00:00,30.3,12.5,30.32,West,262,9.2,9.2,47,0.00,CLR,,0.00,WeatherDisplay:10.37,2013-01-23 18:00:00,
2013-01-23 13:01:00,30.3,12.5,30.32,WSW,250,9.2,9.2,47,0.00,CLR,,0.00,WeatherDisplay:10.37,2013-01-23 18:01:00,
2013-01-23 13:02:00,30.4,13.0,30.32,West,265,9.2,9.2,48,0.00,CLR,,0.00,WeatherDisplay:10.37,2013-01-23 18:02:00,
2013-01-23 13:03:00,30.5,13.6,30.33,NW,307,10.4,10.4,49,0.00,CLR,,0.00,WeatherDisplay:10.37,2013-01-23 18:03:00,
2013-01-23 13:06:00,30.5,13.6,30.33,WSW,237,11.5,11.5,49,0.00,CLR,,0.00,WeatherDisplay:10.37,2013-01-23 18:06:00,
2013-01-23 13:08:00,30.4,13.0,30.32,WSW,257,10.4,10.4,48,0.00,CLR,,0.00,WeatherDisplay:10.37,2013-01-23 18:08:00,
2013-01-23 13:09:00,30.4,13.5,30.32,SW,229,10.4,10.4,49,0.00,CLR,,0.00,WeatherDisplay:10.37,2013-01-23 18:09:00,
2013-01-23 13:11:00,30.7,14.2,30.32,WNW,293,11.5,11.5,50,0.00,CLR,,0.00,WeatherDisplay:10.37,2013-01-23 18:11:00,
2013-01-23 13:13:00,31.0,14.0,30.32,WSW,245,8.1,8.1,49,0.00,CLR,,0.00,WeatherDisplay:10.37,2013-01-23 18:13:00,
2013-01-23 13:14:00,31.0,13.6,30.32,WSW,249,11.5,11.5,48,0.00,CLR,,0.00,WeatherDisplay:10.37,2013-01-23 18:14:00,
2013-01-23 13:16:00,31.2,13.8,30.32,SW,235,6.0,6.0,48,0.00,CLR,,0.00,WeatherDisplay:10.37,2013-01-23 18:16:00,
2013-01-23 13:19:00,31.4,14.4,30.32,SW,229,8.1,8.1,49,0.00,CLR,,0.00,WeatherDisplay:10.37,2013-01-23 18:19:00,
2013-01-23 13:21:00,31.3,13.4,30.32,WSW,241,11.5,11.5,47,0.00,CLR,,0.00,WeatherDisplay:10.37,2013-01-23 18:21:00,
2013-01-23 13:22:00,31.3,13.9,30.32,WNW,282,11.5,11.5,48,0.00,CLR,,0.00,WeatherDisplay:10.37,2013-01-23 18:22:00,
2013-01-23 13:24:00,31.4,13.9,30.32,WSW,257,9.2,9.2,48,0.00,CLR,,0.00,WeatherDisplay:10.37,2013-01-23 18:24:00,
2013-01-23 13:25:00,31.4,13.9,30.32,WSW,251,5.0,12.0,48,0.00,CLR,,0.00,WeatherDisplay:10.37,2013-01-23 18:25:00,
2013-01-23 13:26:00,31.4,13.9,30.32,WSW,247,11.5,11.5,48,0.00,CLR,,0.00,WeatherDisplay:10.37,2013-01-23 18:26:00,
2013-01-23 13:27:00,31.3,13.4,30.32,SW,235,11.5,11.5,47,0.00,CLR,,0.00,WeatherDisplay:10.37,2013-01-23 18:27:00,
2013-01-23 13:29:00,31.5,14.5,30.32,West,269,15.0,15.0,49,0.00,CLR,,0.00,WeatherDisplay:10.37,2013-01-23 18:29:00,
2013-01-23 13:30:00,31.4,14.4,30.31,WSW,247,15.0,15.0,49,0.00,CLR,,0.00,WeatherDisplay:10.37,2013-01-23 18:30:00,
2013-01-23 13:31:00,31.4,13.9,30.31,WSW,253,10.4,10.4,48,0.00,CLR,,0.00,WeatherDisplay:10.37,2013-01-23 18:31:00,
2013-01-23 13:32:00,31.4,13.9,30.31,West,260,10.4,10.4,48,0.00,CLR,,0.00,WeatherDisplay:10.37,2013-01-23 18:32:00,
2013-01-23 13:34:00,31.5,14.0,30.31,West,260,13.8,13.8,48,0.00,CLR,,0.00,WeatherDisplay:10.37,2013-01-23 18:34:00,
2013-01-23 13:35:00,31.6,14.1,30.31,WSW,253,11.5,11.5,48,0.00,CLR,,0.00,WeatherDisplay:10.37,2013-01-23 18:35:00,
2013-01-23 13:37:00,31.6,14.1,30.31,SW,232,12.7,12.7,48,0.00,CLR,,0.00,WeatherDisplay:10.37,2013-01-23 18:37:00,
2013-01-23 13:38:00,31.6,14.1,30.31,SW,236,12.7,12.7,48,0.00,CLR,,0.00,WeatherDisplay:10.37,2013-01-23 18:38:00,
2013-01-23 13:39:00,31.8,14.3,30.31,WSW,253,8.1,8.1,48,0.00,CLR,,0.00,WeatherDisplay:10.37,2013-01-23 18:39:00,
2013-01-23 13:41:00,32.0,14.5,30.31,WSW,240,8.1,8.1,48,0.00,CLR,,0.00,WeatherDisplay:10.37,2013-01-23 18:41:00,
2013-01-23 13:42:00,32.1,14.6,30.31,WSW,250,11.5,11.5,48,0.00,CLR,,0.00,WeatherDisplay:10.37,2013-01-23 18:42:00,
2013-01-23 13:43:00,32.1,14.6,30.31,WSW,255,11.5,11.5,48,0.00,CLR,,0.00,WeatherDisplay:10.37,2013-01-23 18:43:00,
2013-01-23 13:45:00,32.6,15.5,30.31,SSW,212,5.8,5.8,49,0.00,CLR,,0.00,WeatherDisplay:10.37,2013-01-23 18:45:00,
2013-01-23 13:46:00,32.8,15.2,30.30,WSW,250,13.8,13.8,48,0.00,,,0.00,WeatherDisplay:10.37,2013-01-23 18:46:00,
2013-01-23 13:48:00,33.2,15.6,30.30,WSW,242,9.2,9.2,48,0.00,,,0.00,WeatherDisplay:10.37,2013-01-23 18:48:00,
2013-01-23 13:49:00,33.3,15.2,30.31,West,262,11.5,11.5,47,0.00,,,0.00,WeatherDisplay:10.37,2013-01-23 18:49:00,
2013-01-23 13:50:00,33.4,15.3,30.30,WNW,303,11.5,11.5,47,0.00,,,0.00,WeatherDisplay:10.37,2013-01-23 18:50:00,
2013-01-23 13:52:00,33.6,15.5,30.30,SW,219,8.1,8.1,47,0.00,,,0.00,WeatherDisplay:10.37,2013-01-23 18:52:00,
2013-01-23 13:54:00,33.4,15.3,30.30,West,262,11.5,11.5,47,0.00,,,0.00,WeatherDisplay:10.37,2013-01-23 18:54:00,
2013-01-23 13:55:00,33.2,14.6,30.30,SW,232,11.5,11.5,46,0.00,,,0.00,WeatherDisplay:10.37,2013-01-23 18:55:00,
2013-01-23 13:57:00,32.9,14.8,30.30,WSW,254,12.7,12.7,47,0.00,,,0.00,WeatherDisplay:10.37,2013-01-23 18:57:00,
2013-01-23 13:59:00,32.6,14.6,30.30,West,261,11.5,11.5,47,0.00,,,0.00,WeatherDisplay:10.37,2013-01-23 18:59:00,
2013-01-23 14:00:00,32.5,14.5,30.29,WSW,257,12.7,12.7,47,0.00,,,0.00,WeatherDisplay:10.37,2013-01-23 19:00:00,
2013-01-23 14:02:00,32.4,14.4,30.29,SW,234,10.4,10.4,47,0.00,,,0.00,WeatherDisplay:10.37,2013-01-23 19:02:00,
2013-01-23 14:04:00,32.4,14.9,30.29,West,269,11.5,11.5,48,0.00,,,0.00,WeatherDisplay:10.37,2013-01-23 19:04:00,
2013-01-23 14:05:00,32.5,15.4,30.29,WSW,248,15.0,15.0,49,0.00,,,0.00,WeatherDisplay:10.37,2013-01-23 19:05:00,
2013-01-23 14:07:00,32.8,15.2,30.29,WSW,253,11.5,11.5,48,0.00,,,0.00,WeatherDisplay:10.37,2013-01-23 19:07:00,
2013-01-23 14:09:00,33.1,15.5,30.28,WSW,250,10.0,10.0,48,0.00,,,0.00,WeatherDisplay:10.37,2013-01-23 19:09:00,
2013-01-23 14:10:00,33.3,15.7,30.28,West,264,13.0,13.0,48,0.00,,,0.00,WeatherDisplay:10.37,2013-01-23 19:10:00,
2013-01-23 14:13:00,33.4,15.3,30.28,WSW,254,16.1,16.1,47,0.00,,,0.00,WeatherDisplay:10.37,2013-01-23 19:13:00,
2013-01-23 14:14:00,33.6,16.0,30.28,WSW,253,12.7,12.7,48,0.00,,,0.00,WeatherDisplay:10.37,2013-01-23 19:14:00,
2013-01-23 14:15:00,33.7,16.1,30.28,WNW,295,11.5,11.5,48,0.00,,,0.00,WeatherDisplay:10.37,2013-01-23 19:15:00,
2013-01-23 14:16:00,33.8,16.2,30.28,WNW,283,11.5,11.5,48,0.00,,,0.00,WeatherDisplay:10.37,2013-01-23 19:16:00,
2013-01-23 14:18:00,34.0,15.4,30.28,SW,229,16.1,16.1,46,0.00,,,0.00,WeatherDisplay:10.37,2013-01-23 19:18:00,
2013-01-23 14:20:00,34.0,15.9,30.28,West,265,15.0,15.0,47,0.00,,,0.00,WeatherDisplay:10.37,2013-01-23 19:20:00,
2013-01-23 14:21:00,34.0,15.9,30.28,SW,234,17.3,17.3,47,0.00,,,0.00,WeatherDisplay:10.37,2013-01-23 19:21:00,
2013-01-23 14:23:00,34.0,15.9,30.28,WSW,252,11.5,11.5,47,0.00,,,0.00,WeatherDisplay:10.37,2013-01-23 19:23:00,
2013-01-23 14:25:00,34.1,15.9,30.28,West,268,11.5,11.5,47,0.00,,,0.00,WeatherDisplay:10.37,2013-01-23 19:25:00,
2013-01-23 14:26:00,34.0,15.4,30.28,SW,228,15.0,15.0,46,0.00,,,0.00,WeatherDisplay:10.37,2013-01-23 19:26:00,
2013-01-23 14:28:00,34.1,15.9,30.28,SW,235,9.0,9.0,47,0.00,,,0.00,WeatherDisplay:10.37,2013-01-23 19:28:00,
2013-01-23 14:30:00,34.3,16.1,30.28,SW,229,10.4,10.4,47,0.00,,,0.00,WeatherDisplay:10.37,2013-01-23 19:30:00,
2013-01-23 14:31:00,34.4,16.2,30.28,West,263,10.4,10.4,47,0.00,,,0.00,WeatherDisplay:10.37,2013-01-23 19:31:00,
2013-01-23 14:33:00,34.6,16.4,30.28,WSW,242,9.2,9.2,47,0.00,,,0.00,WeatherDisplay:10.37,2013-01-23 19:33:00,
2013-01-23 14:35:00,34.5,15.8,30.27,WSW,241,11.5,11.5,46,0.00,,,0.00,WeatherDisplay:10.37,2013-01-23 19:35:00,
2013-01-23 14:36:00,34.5,15.8,30.27,WSW,245,11.5,11.5,46,0.00,,,0.00,WeatherDisplay:10.37,2013-01-23 19:36:00,
2013-01-23 14:37:00,34.4,15.7,30.27,West,265,12.7,12.7,46,0.00,,,0.00,WeatherDisplay:10.37,2013-01-23 19:37:00,
2013-01-23 14:38:00,34.4,15.7,30.28,SW,230,18.4,18.4,46,0.00,,,0.00,WeatherDisplay:10.37,2013-01-23 19:38:00,
2013-01-23 14:40:00,34.4,15.7,30.27,SSW,193,12.7,12.7,46,0.00,,,0.00,WeatherDisplay:10.37,2013-01-23 19:40:00,
2013-01-23 14:41:00,34.4,15.7,30.27,WSW,256,11.5,11.5,46,0.00,,,0.00,WeatherDisplay:10.37,2013-01-23 19:41:00,
2013-01-23 14:42:00,34.4,15.7,30.27,West,266,11.5,11.5,46,0.00,,,0.00,WeatherDisplay:10.37,2013-01-23 19:42:00,
2013-01-23 14:44:00,34.4,15.7,30.27,West,262,11.5,11.5,46,0.00,,,0.00,WeatherDisplay:10.37,2013-01-23 19:44:00,
2013-01-23 14:45:00,34.5,16.3,30.27,WSW,257,6.9,6.9,47,0.00,,,0.00,WeatherDisplay:10.37,2013-01-23 19:45:00,
2013-01-23 14:46:00,34.6,16.4,30.27,WSW,250,9.0,9.0,47,0.00,,,0.00,WeatherDisplay:10.37,2013-01-23 19:46:00,
2013-01-23 14:47:00,34.8,16.1,30.27,NW,320,11.5,11.5,46,0.00,,,0.00,WeatherDisplay:10.37,2013-01-23 19:47:00,
2013-01-23 14:49:00,34.9,16.2,30.27,WNW,282,10.4,10.4,46,0.00,,,0.00,WeatherDisplay:10.37,2013-01-23 19:49:00,
2013-01-23 14:51:00,34.9,16.2,30.27,SW,229,18.4,18.4,46,0.00,,,0.00,WeatherDisplay:10.37,2013-01-23 19:51:00,
2013-01-23 14:54:00,34.7,16.0,30.27,NW,321,16.1,16.1,46,0.00,,,0.00,WeatherDisplay:10.37,2013-01-23 19:54:00,
2013-01-23 14:55:00,34.7,16.0,30.27,WSW,250,9.2,9.2,46,0.00,,,0.00,WeatherDisplay:10.37,2013-01-23 19:55:00,
2013-01-23 14:56:00,34.8,16.6,30.27,WSW,253,11.5,11.5,47,0.00,,,0.00,WeatherDisplay:10.37,2013-01-23 19:56:00,
2013-01-23 14:57:00,34.8,16.1,30.27,SSW,196,11.5,11.5,46,0.00,,,0.00,WeatherDisplay:10.37,2013-01-23 19:57:00,
2013-01-23 14:59:00,35.1,16.4,30.27,WNW,285,11.5,11.5,46,0.00,,,0.00,WeatherDisplay:10.37,2013-01-23 19:59:00,
2013-01-23 15:00:00,35.1,16.4,30.27,WSW,253,11.5,11.5,46,0.00,,,0.00,WeatherDisplay:10.37,2013-01-23 20:00:00,
2013-01-23 15:01:00,35.1,16.4,30.27,SW,219,15.0,15.0,46,0.00,,,0.00,WeatherDisplay:10.37,2013-01-23 20:01:00,
2013-01-23 15:02:00,35.1,16.4,30.27,West,264,16.1,16.1,46,0.00,,,0.00,WeatherDisplay:10.37,2013-01-23 20:02:00,
2013-01-23 15:04:00,35.0,16.3,30.26,WSW,238,11.5,11.5,46,0.00,,,0.00,WeatherDisplay:10.37,2013-01-23 20:04:00,
2013-01-23 15:05:00,35.1,16.9,30.26,WSW,248,10.4,10.4,47,0.00,,,0.00,WeatherDisplay:10.37,2013-01-23 20:05:00,
2013-01-23 15:06:00,35.3,17.1,30.26,WSW,253,9.2,9.2,47,0.00,,,0.00,WeatherDisplay:10.37,2013-01-23 20:06:00,
2013-01-23 15:07:00,35.4,17.1,30.26,WNW,290,5.8,5.8,47,0.00,,,0.00,WeatherDisplay:10.37,2013-01-23 20:07:00,
2013-01-23 15:09:00,35.5,16.7,30.26,WSW,244,14.0,14.0,46,0.00,,,0.00,WeatherDisplay:10.37,2013-01-23 20:09:00,
2013-01-23 15:10:00,35.4,16.6,30.26,NW,304,13.8,13.8,46,0.00,,,0.00,WeatherDisplay:10.37,2013-01-23 20:10:00,
2013-01-23 15:11:00,35.3,17.1,30.26,SW,222,10.4,10.4,47,0.00,,,0.00,WeatherDisplay:10.37,2013-01-23 20:11:00,
2013-01-23 15:12:00,35.2,16.5,30.26,West,262,11.5,11.5,46,0.00,,,0.00,WeatherDisplay:10.37,2013-01-23 20:12:00,
2013-01-23 15:15:00,34.8,16.6,30.26,WSW,257,13.8,13.8,47,0.00,,,0.00,WeatherDisplay:10.37,2013-01-23 20:15:00,
2013-01-23 15:16:00,34.7,16.5,30.26,WSW,243,8.1,8.1,47,0.00,,,0.00,WeatherDisplay:10.37,2013-01-23 20:16:00,
2013-01-23 15:17:00,34.5,16.8,30.26,WSW,255,11.5,11.5,48,0.00,,,0.00,WeatherDisplay:10.37,2013-01-23 20:17:00,
2013-01-23 15:18:00,34.5,16.3,30.26,SW,232,11.5,11.5,47,0.00,,,0.00,WeatherDisplay:10.37,2013-01-23 20:18:00,
2013-01-23 15:20:00,34.4,16.7,30.26,West,260,11.0,11.0,48,0.00,,,0.00,WeatherDisplay:10.37,2013-01-23 20:20:00,
2013-01-23 15:21:00,34.3,16.6,30.26,WSW,252,11.5,11.5,48,0.00,,,0.00,WeatherDisplay:10.37,2013-01-23 20:21:00,
2013-01-23 15:22:00,34.2,16.5,30.26,WSW,247,8.1,8.1,48,0.00,,,0.00,WeatherDisplay:10.37,2013-01-23 20:22:00,
2013-01-23 15:23:00,34.1,15.9,30.26,WSW,245,5.8,5.8,47,0.00,,,0.00,WeatherDisplay:10.37,2013-01-23 20:23:00,
2013-01-23 15:25:00,34.0,16.3,30.26,WSW,242,8.1,8.1,48,0.00,,,0.00,WeatherDisplay:10.37,2013-01-23 20:25:00,
2013-01-23 15:27:00,33.9,16.3,30.26,WSW,238,6.9,6.9,48,0.00,,,0.00,WeatherDisplay:10.37,2013-01-23 20:27:00,
2013-01-23 15:28:00,33.8,16.2,30.26,WSW,256,9.2,9.2,48,0.00,,,0.00,WeatherDisplay:10.37,2013-01-23 20:28:00,
2013-01-23 15:31:00,33.6,16.5,30.26,WNW,293,10.4,10.4,49,0.00,,,0.00,WeatherDisplay:10.37,2013-01-23 20:31:00,
2013-01-23 15:32:00,33.6,16.9,30.26,WSW,256,5.8,5.8,50,0.00,,,0.00,WeatherDisplay:10.37,2013-01-23 20:32:00,
2013-01-23 15:33:00,33.6,16.9,30.26,WSW,252,6.0,6.0,50,0.00,,,0.00,WeatherDisplay:10.37,2013-01-23 20:33:00,
2013-01-23 15:36:00,33.6,16.9,30.26,WSW,245,5.8,5.8,50,0.00,,,0.00,WeatherDisplay:10.37,2013-01-23 20:36:00,
2013-01-23 15:37:00,33.7,17.0,30.26,SW,229,6.9,6.9,50,0.00,,,0.00,WeatherDisplay:10.37,2013-01-23 20:37:00,
2013-01-23 15:38:00,33.7,17.0,30.25,West,270,6.9,6.9,50,0.00,,,0.00,WeatherDisplay:10.37,2013-01-23 20:38:00,
2013-01-23 15:42:00,33.7,16.1,30.26,West,262,8.1,8.1,48,0.00,,,0.00,WeatherDisplay:10.37,2013-01-23 20:42:00,
2013-01-23 15:43:00,33.7,16.5,30.26,West,261,11.5,11.5,49,0.00,,,0.00,WeatherDisplay:10.37,2013-01-23 20:43:00,
2013-01-23 15:44:00,33.6,16.5,30.26,WSW,255,12.7,12.7,49,0.00,,,0.00,WeatherDisplay:10.37,2013-01-23 20:44:00,
2013-01-23 15:47:00,33.7,16.5,30.26,WSW,246,5.8,5.8,49,0.00,,,0.00,WeatherDisplay:10.37,2013-01-23 20:47:00,
2013-01-23 15:48:00,33.7,17.0,30.26,WSW,245,6.9,6.9,50,0.00,,,0.00,WeatherDisplay:10.37,2013-01-23 20:48:00,
2013-01-23 15:50:00,33.8,17.1,30.26,WSW,248,8.1,8.1,50,0.00,,,0.00,WeatherDisplay:10.37,2013-01-23 20:50:00,
2013-01-23 15:52:00,33.9,17.2,30.26,SW,224,6.9,6.9,50,0.00,,,0.00,WeatherDisplay:10.37,2013-01-23 20:52:00,
2013-01-23 15:53:00,34.1,17.4,30.26,WSW,254,4.6,4.6,50,0.00,,,0.00,WeatherDisplay:10.37,2013-01-23 20:53:00,
2013-01-23 15:55:00,34.3,17.6,30.26,SW,235,3.5,3.5,50,0.00,,,0.00,WeatherDisplay:10.37,2013-01-23 20:55:00,
2013-01-23 15:58:00,34.7,17.5,30.26,WSW,243,10.4,10.4,49,0.00,,,0.00,WeatherDisplay:10.37,2013-01-23 20:58:00,
2013-01-23 15:59:00,34.7,17.5,30.26,West,264,12.7,12.7,49,0.00,,,0.00,WeatherDisplay:10.37,2013-01-23 20:59:00,
2013-01-23 16:00:00,34.7,17.5,30.26,SW,234,12.7,12.7,49,0.00,,,0.00,WeatherDisplay:10.37,2013-01-23 21:00:00,
2013-01-23 16:03:00,34.9,18.1,30.26,WSW,241,11.5,11.5,50,0.00,,,0.00,WeatherDisplay:10.37,2013-01-23 21:03:00,
2013-01-23 16:04:00,35.0,18.2,30.26,WSW,240,6.9,6.9,50,0.00,,,0.00,WeatherDisplay:10.37,2013-01-23 21:04:00,
2013-01-23 16:05:00,35.1,18.3,30.26,WSW,240,8.0,8.0,50,0.00,,,0.00,WeatherDisplay:10.37,2013-01-23 21:05:00,
2013-01-23 16:08:00,35.2,18.4,30.26,WSW,250,5.8,5.8,50,0.00,,,0.00,WeatherDisplay:10.37,2013-01-23 21:08:00,
2013-01-23 16:09:00,35.2,18.4,30.26,WNW,285,5.8,5.8,50,0.00,,,0.00,WeatherDisplay:10.37,2013-01-23 21:09:00,
2013-01-23 16:10:00,35.3,19.0,30.26,NW,305,8.1,8.1,51,0.00,,,0.00,WeatherDisplay:10.37,2013-01-23 21:10:00,
2013-01-23 16:13:00,35.4,19.0,30.25,South,189,11.5,11.5,51,0.00,,,0.00,WeatherDisplay:10.37,2013-01-23 21:13:00,
2013-01-23 16:14:00,35.4,19.5,30.25,WSW,253,11.5,11.5,52,0.00,,,0.00,WeatherDisplay:10.37,2013-01-23 21:14:00,
2013-01-23 16:15:00,35.4,19.5,30.25,WSW,250,10.4,10.4,52,0.00,,,0.00,WeatherDisplay:10.37,2013-01-23 21:15:00,
2013-01-23 16:19:00,35.7,20.2,30.25,West,265,10.0,10.0,53,0.00,,,0.00,WeatherDisplay:10.37,2013-01-23 21:19:00,
2013-01-23 16:20:00,35.7,19.8,30.25,NW,316,17.3,17.3,52,0.00,,,0.00,WeatherDisplay:10.37,2013-01-23 21:20:00,
2013-01-23 16:24:00,35.6,20.1,30.25,SSE,158,12.7,12.7,53,0.00,,,0.00,WeatherDisplay:10.37,2013-01-23 21:24:00,
2013-01-23 16:25:00,35.6,20.1,30.24,WSW,258,12.7,12.7,53,0.00,,,0.00,WeatherDisplay:10.37,2013-01-23 21:25:00,
2013-01-23 16:26:00,35.6,20.1,30.24,WSW,250,8.0,8.0,53,0.00,,,0.00,WeatherDisplay:10.37,2013-01-23 21:26:00,
2013-01-23 16:29:00,35.6,20.1,30.24,WSW,252,8.1,8.1,53,0.00,,,0.00,WeatherDisplay:10.37,2013-01-23 21:29:00,
2013-01-23 16:30:00,35.6,20.1,30.24,West,260,8.1,8.1,53,0.00,,,0.00,WeatherDisplay:10.37,2013-01-23 21:30:00,
2013-01-23 16:31:00,35.5,19.6,30.24,West,264,15.0,15.0,52,0.00,,,0.00,WeatherDisplay:10.37,2013-01-23 21:31:00,
2013-01-23 16:34:00,35.5,20.0,30.24,WSW,243,9.2,9.2,53,0.00,,,0.00,WeatherDisplay:10.37,2013-01-23 21:34:00,
2013-01-23 16:35:00,35.5,20.0,30.24,WSW,254,9.2,9.2,53,0.00,,,0.00,WeatherDisplay:10.37,2013-01-23 21:35:00,
2013-01-23 16:37:00,35.6,20.1,30.24,WSW,256,8.1,8.1,53,0.00,,,0.00,WeatherDisplay:10.37,2013-01-23 21:37:00,
2013-01-23 16:39:00,35.6,19.7,30.24,WSW,253,11.5,11.5,52,0.00,,,0.00,WeatherDisplay:10.37,2013-01-23 21:39:00,
2013-01-23 16:40:00,35.6,19.7,30.24,WSW,256,6.0,12.0,52,0.00,,,0.00,WeatherDisplay:10.37,2013-01-23 21:40:00,
2013-01-23 16:42:00,35.5,20.0,30.24,SW,232,11.5,11.5,53,0.00,,,0.00,WeatherDisplay:10.37,2013-01-23 21:42:00,
2013-01-23 16:44:00,35.5,20.0,30.24,WSW,244,4.6,4.6,53,0.00,,,0.00,WeatherDisplay:10.37,2013-01-23 21:44:00,
2013-01-23 16:45:00,35.5,20.0,30.24,WSW,242,5.8,5.8,53,0.00,,,0.00,WeatherDisplay:10.37,2013-01-23 21:45:00,
2013-01-23 16:46:00,35.6,20.1,30.24,West,270,5.8,5.8,53,0.00,,,0.00,WeatherDisplay:10.37,2013-01-23 21:46:00,
2013-01-23 16:47:00,35.6,20.1,30.24,SW,224,5.8,5.8,53,0.00,,,0.00,WeatherDisplay:10.37,2013-01-23 21:47:00,
2013-01-23 16:49:00,35.4,19.0,30.23,WSW,242,10.4,10.4,51,0.00,,,0.00,WeatherDisplay:10.37,2013-01-23 21:49:00,
2013-01-23 16:50:00,35.4,19.0,30.24,WSW,248,6.9,6.9,51,0.00,,,0.00,WeatherDisplay:10.37,2013-01-23 21:50:00,
2013-01-23 16:51:00,35.3,19.4,30.23,WSW,245,4.6,4.6,52,0.00,,,0.00,WeatherDisplay:10.37,2013-01-23 21:51:00,
2013-01-23 16:52:00,35.3,19.4,30.23,WSW,252,5.0,5.0,52,0.00,,,0.00,WeatherDisplay:10.37,2013-01-23 21:52:00,
2013-01-23 16:55:00,35.3,19.0,30.24,WSW,251,3.5,3.5,51,0.00,,,0.00,WeatherDisplay:10.37,2013-01-23 21:55:00,
2013-01-23 16:57:00,35.3,19.0,30.24,WSW,239,8.0,8.0,51,0.00,,,0.00,WeatherDisplay:10.37,2013-01-23 21:57:00,
2013-01-23 17:00:00,35.1,18.8,30.24,WSW,251,3.0,12.0,51,0.00,,,0.00,WeatherDisplay:10.37,2013-01-23 22:00:00,
2013-01-23 17:02:00,35.2,19.3,30.24,SSW,208,3.5,3.5,52,0.00,,,0.00,WeatherDisplay:10.37,2013-01-23 22:02:00,
2013-01-23 17:05:00,35.2,18.9,30.24,WSW,251,3.0,8.0,51,0.00,,,0.00,WeatherDisplay:10.37,2013-01-23 22:05:00,
2013-01-23 17:07:00,35.2,19.3,30.24,WSW,257,4.0,4.0,52,0.00,,,0.00,WeatherDisplay:10.37,2013-01-23 22:07:00,
2013-01-23 17:10:00,35.1,19.7,30.24,West,260,4.6,4.6,53,0.00,,,0.00,WeatherDisplay:10.37,2013-01-23 22:10:00,
2013-01-23 17:11:00,35.0,19.6,30.23,WSW,253,4.6,4.6,53,0.00,,,0.00,WeatherDisplay:10.37,2013-01-23 22:11:00,
2013-01-23 17:12:00,35.0,19.6,30.23,WSW,248,3.5,3.5,53,0.00,,,0.00,WeatherDisplay:10.37,2013-01-23 22:12:00,
2013-01-23 17:15:00,34.8,19.4,30.23,West,272,3.5,3.5,53,0.00,,,0.00,WeatherDisplay:10.37,2013-01-23 22:15:00,
2013-01-23 17:16:00,34.8,19.4,30.23,West,262,6.0,6.0,53,0.00,,,0.00,WeatherDisplay:10.37,2013-01-23 22:16:00,
2013-01-23 17:17:00,34.8,19.4,30.23,WSW,246,5.8,5.8,53,0.00,,,0.00,WeatherDisplay:10.37,2013-01-23 22:17:00,
2013-01-23 17:21:00,34.6,19.6,30.23,WSW,258,3.5,3.5,54,0.00,,,0.00,WeatherDisplay:10.37,2013-01-23 22:21:00,
2013-01-23 17:22:00,34.5,19.5,30.23,West,272,3.5,3.5,54,0.00,,,0.00,WeatherDisplay:10.37,2013-01-23 22:22:00,
2013-01-23 17:23:00,34.5,19.5,30.23,WSW,252,4.6,4.6,54,0.00,,,0.00,WeatherDisplay:10.37,2013-01-23 22:23:00,
2013-01-23 17:26:00,34.3,19.4,30.23,WSW,257,2.3,2.3,54,0.00,,,0.00,WeatherDisplay:10.37,2013-01-23 22:26:00,
2013-01-23 17:27:00,34.3,19.4,30.23,WSW,256,2.3,2.3,54,0.00,,,0.00,WeatherDisplay:10.37,2013-01-23 22:27:00,
2013-01-23 17:28:00,34.2,19.3,30.23,WSW,252,2.3,2.3,54,0.00,,,0.00,WeatherDisplay:10.37,2013-01-23 22:28:00,
2013-01-23 17:31:00,34.0,19.1,30.23,WSW,250,5.8,5.8,54,0.00,,,0.00,WeatherDisplay:10.37,2013-01-23 22:31:00,
2013-01-23 17:32:00,33.9,19.4,30.23,West,259,3.5,3.5,55,0.00,,,0.00,WeatherDisplay:10.37,2013-01-23 22:32:00,
2013-01-23 17:33:00,33.9,19.4,30.22,West,260,3.5,3.5,55,0.00,,,0.00,WeatherDisplay:10.37,2013-01-23 22:33:00,
2013-01-23 17:34:00,33.8,19.3,30.22,WSW,240,2.3,2.3,55,0.00,,,0.00,WeatherDisplay:10.37,2013-01-23 22:34:00,
2013-01-23 17:36:00,33.5,19.5,30.22,SW,229,4.6,4.6,56,0.00,,,0.00,WeatherDisplay:10.37,2013-01-23 22:36:00,
2013-01-23 17:38:00,33.4,19.4,30.22,West,271,3.5,3.5,56,0.00,,,0.00,WeatherDisplay:10.37,2013-01-23 22:38:00,
2013-01-23 17:39:00,33.1,19.1,30.22,WSW,252,9.0,9.0,56,0.00,,,0.00,WeatherDisplay:10.37,2013-01-23 22:39:00,
2013-01-23 17:41:00,33.0,19.0,30.22,WSW,253,5.8,5.8,56,0.00,,,0.00,WeatherDisplay:10.37,2013-01-23 22:41:00,
2013-01-23 17:43:00,32.8,19.2,30.22,WSW,243,4.6,4.6,57,0.00,,,0.00,WeatherDisplay:10.37,2013-01-23 22:43:00,
2013-01-23 17:44:00,32.7,19.1,30.22,WSW,244,4.0,4.0,57,0.00,,,0.00,WeatherDisplay:10.37,2013-01-23 22:44:00,
2013-01-23 17:47:00,32.5,18.9,30.22,WNW,293,3.5,3.5,57,0.00,,,0.00,WeatherDisplay:10.37,2013-01-23 22:47:00,
2013-01-23 17:48:00,32.5,19.3,30.22,SW,236,8.0,8.0,58,0.00,,,0.00,WeatherDisplay:10.37,2013-01-23 22:48:00,
2013-01-23 17:50:00,32.4,19.3,30.22,West,261,8.1,8.1,58,0.00,,,0.00,WeatherDisplay:10.37,2013-01-23 22:50:00,
2013-01-23 17:52:00,32.3,19.2,30.22,West,265,4.6,4.6,58,0.00,,,0.00,WeatherDisplay:10.37,2013-01-23 22:52:00,
2013-01-23 17:53:00,32.2,19.1,30.22,West,264,4.6,4.6,58,0.00,,,0.00,WeatherDisplay:10.37,2013-01-23 22:53:00,
2013-01-23 17:54:00,32.2,19.1,30.22,West,264,3.5,3.5,58,0.00,,,0.00,WeatherDisplay:10.37,2013-01-23 22:54:00,
2013-01-23 17:55:00,32.1,19.4,30.22,WSW,249,3.5,3.5,59,0.00,,,0.00,WeatherDisplay:10.37,2013-01-23 22:55:00,
2013-01-23 17:57:00,32.0,19.3,30.22,WSW,241,7.0,7.0,59,0.00,,,0.00,WeatherDisplay:10.37,2013-01-23 22:57:00,
2013-01-23 17:58:00,32.0,19.3,30.22,WNW,288,8.1,8.1,59,0.00,,,0.00,WeatherDisplay:10.37,2013-01-23 22:58:00,
2013-01-23 17:59:00,32.0,19.3,30.22,WNW,288,1.1,1.1,59,0.00,,,0.00,WeatherDisplay:10.37,2013-01-23 22:59:00,
2013-01-23 18:00:00,31.9,19.6,30.22,WSW,238,3.0,3.0,60,0.00,,,0.00,WeatherDisplay:10.37,2013-01-23 23:00:00,
2013-01-23 18:02:00,31.8,19.1,30.22,West,265,2.3,2.3,59,0.00,,,0.00,WeatherDisplay:10.37,2013-01-23 23:02:00,
2013-01-23 18:04:00,31.7,19.4,30.22,WSW,253,3.5,3.5,60,0.00,,,0.00,WeatherDisplay:10.37,2013-01-23 23:04:00,
2013-01-23 18:05:00,31.6,19.3,30.22,West,272,1.1,1.1,60,0.00,,,0.00,WeatherDisplay:10.37,2013-01-23 23:05:00,
2013-01-23 18:07:00,31.4,19.5,30.22,West,268,2.3,2.3,61,0.00,,,0.00,WeatherDisplay:10.37,2013-01-23 23:07:00,
2013-01-23 18:09:00,31.3,19.4,30.22,WNW,302,2.3,2.3,61,0.00,,,0.00,WeatherDisplay:10.37,2013-01-23 23:09:00,
2013-01-23 18:10:00,31.2,19.7,30.22,WNW,293,1.1,1.1,62,0.00,,,0.00,WeatherDisplay:10.37,2013-01-23 23:10:00,
2013-01-23 18:13:00,31.0,19.5,30.22,West,261,2.3,2.3,62,0.00,,,0.00,WeatherDisplay:10.37,2013-01-23 23:13:00,
2013-01-23 18:14:00,30.8,19.7,30.22,West,262,0.0,0.1,63,0.00,,,0.00,WeatherDisplay:10.37,2013-01-23 23:14:00,
2013-01-23 18:15:00,30.8,19.7,30.22,West,262,1.1,1.1,63,0.00,,,0.00,WeatherDisplay:10.37,2013-01-23 23:15:00,
2013-01-23 18:18:00,30.5,19.4,30.22,WNW,293,2.3,2.3,63,0.00,,,0.00,WeatherDisplay:10.37,2013-01-23 23:18:00,
2013-01-23 18:19:00,30.4,19.7,30.22,WNW,293,0.0,0.0,64,0.00,,,0.00,WeatherDisplay:10.37,2013-01-23 23:19:00,
2013-01-23 18:20:00,30.3,19.6,30.21,WNW,293,1.1,0.0,64,0.00,,,0.00,WeatherDisplay:10.37,2013-01-23 23:20:00,
2013-01-23 18:23:00,30.1,19.7,30.22,WNW,293,0.0,0.0,65,0.00,,,0.00,WeatherDisplay:10.37,2013-01-23 23:23:00,
2013-01-23 18:24:00,29.9,19.6,30.22,WNW,293,0.0,0.1,65,0.00,,,0.00,WeatherDisplay:10.37,2013-01-23 23:24:00,
2013-01-23 18:25:00,29.9,19.9,30.22,WNW,293,1.1,1.1,66,0.00,,,0.00,WeatherDisplay:10.37,2013-01-23 23:25:00,
2013-01-23 18:26:00,29.8,19.8,30.22,WNW,293,1.1,0.0,66,0.00,,,0.00,WeatherDisplay:10.37,2013-01-23 23:26:00,
2013-01-23 18:28:00,29.6,19.6,30.22,WNW,293,1.1,1.1,66,0.00,,,0.00,WeatherDisplay:10.37,2013-01-23 23:28:00,
2013-01-23 18:29:00,29.5,19.5,30.22,WNW,292,1.1,0.0,66,0.00,,,0.00,WeatherDisplay:10.37,2013-01-23 23:29:00,
2013-01-23 18:30:00,29.4,19.4,30.22,WNW,292,0.0,0.0,66,0.00,,,0.00,WeatherDisplay:10.37,2013-01-23 23:30:00,
2013-01-23 18:32:00,29.3,19.7,30.22,WNW,292,0.0,0.0,67,0.00,,,0.00,WeatherDisplay:10.37,2013-01-23 23:32:00,
2013-01-23 18:33:00,29.2,19.6,30.22,WNW,293,0.0,0.0,67,0.00,,,0.00,WeatherDisplay:10.37,2013-01-23 23:33:00,
2013-01-23 18:34:00,29.0,19.8,30.22,WNW,292,0.0,0.0,68,0.00,,,0.00,WeatherDisplay:10.37,2013-01-23 23:34:00,
2013-01-23 18:36:00,28.9,19.7,30.22,WNW,293,0.0,0.0,68,0.00,,,0.00,WeatherDisplay:10.37,2013-01-23 23:36:00,
2013-01-23 18:37:00,28.8,19.6,30.22,WNW,293,0.0,0.0,68,0.00,,,0.00,WeatherDisplay:10.37,2013-01-23 23:37:00,
2013-01-23 18:38:00,28.8,19.9,30.22,WNW,292,0.0,0.0,69,0.00,,,0.00,WeatherDisplay:10.37,2013-01-23 23:38:00,
2013-01-23 18:40:00,28.7,19.8,30.22,WNW,292,1.0,1.0,69,0.00,,,0.00,WeatherDisplay:10.37,2013-01-23 23:40:00,
2013-01-23 18:41:00,28.6,19.4,30.22,WNW,293,1.1,1.1,68,0.00,,,0.00,WeatherDisplay:10.37,2013-01-23 23:41:00,
2013-01-23 18:42:00,28.4,19.5,30.21,WNW,293,0.0,0.0,69,0.00,,,0.00,WeatherDisplay:10.37,2013-01-23 23:42:00,
2013-01-23 18:43:00,28.3,19.4,30.22,WNW,292,0.0,0.0,69,0.00,,,0.00,WeatherDisplay:10.37,2013-01-23 23:43:00,
2013-01-23 18:45:00,28.2,19.3,30.22,WNW,293,0.0,0.0,69,0.00,,,0.00,WeatherDisplay:10.37,2013-01-23 23:45:00,
2013-01-23 18:46:00,28.1,19.2,30.22,WNW,292,0.0,0.0,69,0.00,,,0.00,WeatherDisplay:10.37,2013-01-23 23:46:00,
2013-01-23 18:48:00,27.9,19.4,30.22,WNW,292,0.0,0.0,70,0.00,,,0.00,WeatherDisplay:10.37,2013-01-23 23:48:00,
2013-01-23 18:49:00,27.9,19.4,30.22,WNW,292,0.0,0.0,70,0.00,,,0.00,WeatherDisplay:10.37,2013-01-23 23:49:00,
2013-01-23 18:50:00,27.7,19.5,30.22,WNW,292,0.0,0.0,71,0.00,,,0.00,WeatherDisplay:10.37,2013-01-23 23:50:00,
2013-01-23 18:52:00,27.7,19.5,30.22,WNW,292,0.0,0.1,71,0.00,,,0.00,WeatherDisplay:10.37,2013-01-23 23:52:00,
2013-01-23 18:53:00,27.7,19.5,30.22,WNW,292,0.0,0.0,71,0.00,,,0.00,WeatherDisplay:10.37,2013-01-23 23:53:00,
2013-01-23 18:54:00,27.7,19.5,30.22,WNW,292,1.1,0.0,71,0.00,,,0.00,WeatherDisplay:10.37,2013-01-23 23:54:00,
2013-01-23 18:55:00,27.6,19.8,30.22,WNW,292,0.0,0.0,72,0.00,,,0.00,WeatherDisplay:10.37,2013-01-23 23:55:00,
2013-01-23 18:57:00,27.6,19.8,30.22,WNW,292,1.1,0.0,72,0.00,,,0.00,WeatherDisplay:10.37,2013-01-23 23:57:00,
2013-01-23 18:58:00,27.6,20.1,30.22,WNW,292,0.0,0.0,73,0.00,,,0.00,WeatherDisplay:10.37,2013-01-23 23:58:00,
2013-01-23 18:59:00,27.6,20.1,30.22,WNW,292,0.0,0.0,73,0.00,,,0.00,WeatherDisplay:10.37,2013-01-23 23:59:00,
2013-01-23 19:01:00,27.5,20.0,30.22,WNW,293,0.0,0.0,73,0.00,,,0.00,WeatherDisplay:10.37,2013-01-24 00:01:00,
2013-01-23 19:02:00,27.5,20.3,30.22,WNW,293,0.0,0.0,74,0.00,,,0.00,WeatherDisplay:10.37,2013-01-24 00:02:00,
2013-01-23 19:03:00,27.5,20.3,30.22,WNW,292,0.0,0.0,74,0.00,,,0.00,WeatherDisplay:10.37,2013-01-24 00:03:00,
2013-01-23 19:04:00,27.4,20.2,30.22,WNW,292,0.0,0.0,74,0.00,,,0.00,WeatherDisplay:10.37,2013-01-24 00:04:00,
2013-01-23 19:06:00,27.4,20.2,30.22,WNW,292,0.0,0.0,74,0.00,,,0.00,WeatherDisplay:10.37,2013-01-24 00:06:00,
2013-01-23 19:07:00,27.4,20.2,30.22,WNW,293,0.0,0.0,74,0.00,,,0.00,WeatherDisplay:10.37,2013-01-24 00:07:00,
2013-01-23 19:08:00,27.4,20.2,30.22,WNW,293,0.0,0.0,74,0.00,,,0.00,WeatherDisplay:10.37,2013-01-24 00:08:00,
2013-01-23 19:10:00,27.4,20.2,30.22,WNW,292,0.0,0.0,74,0.00,,,0.00,WeatherDisplay:10.37,2013-01-24 00:10:00,
2013-01-23 19:12:00,27.4,20.2,30.21,WNW,292,0.0,0.0,74,0.00,,,0.00,WeatherDisplay:10.37,2013-01-24 00:12:00,
2013-01-23 19:13:00,27.3,20.1,30.21,WNW,293,0.0,0.0,74,0.00,,,0.00,WeatherDisplay:10.37,2013-01-24 00:13:00,
2013-01-23 19:16:00,27.1,19.9,30.21,WNW,292,0.0,0.0,74,0.00,,,0.00,WeatherDisplay:10.37,2013-01-24 00:16:00,
2013-01-23 19:17:00,27.1,19.9,30.21,WNW,292,0.0,0.0,74,0.00,,,0.00,WeatherDisplay:10.37,2013-01-24 00:17:00,
2013-01-23 19:18:00,26.9,19.7,30.21,WNW,293,0.0,0.0,74,0.00,,,0.00,WeatherDisplay:10.37,2013-01-24 00:18:00,
2013-01-23 19:21:00,26.6,19.4,30.21,WNW,292,0.0,0.0,74,0.00,,,0.00,WeatherDisplay:10.37,2013-01-24 00:21:00,
2013-01-23 19:22:00,26.6,19.7,30.21,WNW,293,0.0,0.0,75,0.00,,,0.00,WeatherDisplay:10.37,2013-01-24 00:22:00,
2013-01-23 19:23:00,26.5,19.6,30.21,WNW,292,1.1,1.1,75,0.00,,,0.00,WeatherDisplay:10.37,2013-01-24 00:23:00,
2013-01-23 19:26:00,26.5,19.6,30.21,WNW,292,1.1,0.0,75,0.00,,,0.00,WeatherDisplay:10.37,2013-01-24 00:26:00,
2013-01-23 19:27:00,26.6,19.7,30.21,WNW,292,0.0,0.0,75,0.00,,,0.00,WeatherDisplay:10.37,2013-01-24 00:27:00,
2013-01-23 19:28:00,26.6,19.7,30.21,WNW,293,0.0,0.0,75,0.00,,,0.00,WeatherDisplay:10.37,2013-01-24 00:28:00,
2013-01-23 19:29:00,26.6,20.1,30.20,WNW,288,0.0,0.0,76,0.00,,,0.00,WeatherDisplay:10.37,2013-01-24 00:29:00,
2013-01-23 19:32:00,26.5,20.0,30.20,WNW,288,0.0,0.0,76,0.00,,,0.00,WeatherDisplay:10.37,2013-01-24 00:32:00,
2013-01-23 19:33:00,26.5,20.0,30.20,WNW,288,1.1,0.0,76,0.00,,,0.00,WeatherDisplay:10.37,2013-01-24 00:33:00,
2013-01-23 19:34:00,26.5,20.0,30.20,WNW,288,0.0,0.0,76,0.00,,,0.00,WeatherDisplay:10.37,2013-01-24 00:34:00,
2013-01-23 19:37:00,26.3,19.8,30.20,WNW,288,0.0,0.0,76,0.00,,,0.00,WeatherDisplay:10.37,2013-01-24 00:37:00,
2013-01-23 19:38:00,26.3,20.1,30.20,WNW,288,0.0,0.0,77,0.00,,,0.00,WeatherDisplay:10.37,2013-01-24 00:38:00,
2013-01-23 19:39:00,26.1,19.9,30.20,WNW,288,0.0,0.0,77,0.00,,,0.00,WeatherDisplay:10.37,2013-01-24 00:39:00,
2013-01-23 19:42:00,26.0,19.8,30.20,WNW,288,0.0,0.0,77,0.00,,,0.00,WeatherDisplay:10.37,2013-01-24 00:42:00,
2013-01-23 19:43:00,25.8,19.6,30.20,WNW,288,0.0,0.0,77,0.00,,,0.00,WeatherDisplay:10.37,2013-01-24 00:43:00,
2013-01-23 19:44:00,25.8,19.6,30.20,WNW,288,0.0,0.0,77,0.00,,,0.00,WeatherDisplay:10.37,2013-01-24 00:44:00,
2013-01-23 19:47:00,25.7,19.8,30.20,WNW,288,1.1,1.1,78,0.00,,,0.00,WeatherDisplay:10.37,2013-01-24 00:47:00,
2013-01-23 19:48:00,25.7,19.8,30.20,WNW,293,1.1,1.2,78,0.00,,,0.00,WeatherDisplay:10.37,2013-01-24 00:48:00,
2013-01-23 19:49:00,25.7,19.8,30.19,WNW,293,2.3,2.3,78,0.00,,,0.00,WeatherDisplay:10.37,2013-01-24 00:49:00,
2013-01-23 19:53:00,26.0,19.8,30.19,WNW,299,0.0,0.0,77,0.00,,,0.00,WeatherDisplay:10.37,2013-01-24 00:53:00,
2013-01-23 19:54:00,26.0,19.8,30.19,WNW,299,0.0,0.0,77,0.00,,,0.00,WeatherDisplay:10.37,2013-01-24 00:54:00,
2013-01-23 19:55:00,26.1,19.9,30.19,WNW,299,1.1,0.0,77,0.00,,,0.00,WeatherDisplay:10.37,2013-01-24 00:55:00,
2013-01-23 19:58:00,26.0,19.8,30.19,WNW,299,0.0,0.0,77,0.00,,,0.00,WeatherDisplay:10.37,2013-01-24 00:58:00,
2013-01-23 19:59:00,26.0,19.8,30.19,WNW,300,0.0,0.0,77,0.00,,,0.00,WeatherDisplay:10.37,2013-01-24 00:59:00,
2013-01-23 20:00:00,26.0,19.8,30.19,WNW,299,0.0,1.0,77,0.00,,,0.00,WeatherDisplay:10.37,2013-01-24 01:00:00,
2013-01-23 20:04:00,25.8,19.6,30.19,WNW,299,0.0,0.0,77,0.00,,,0.00,WeatherDisplay:10.37,2013-01-24 01:04:00,
2013-01-23 20:05:00,25.8,19.9,30.19,WNW,299,0.0,0.0,78,0.00,,,0.00,WeatherDisplay:10.37,2013-01-24 01:05:00,
2013-01-23 20:09:00,25.9,19.7,30.19,WNW,299,0.0,0.0,77,0.00,,,0.00,WeatherDisplay:10.37,2013-01-24 01:09:00,
2013-01-23 20:10:00,25.9,19.7,30.19,WNW,299,0.0,0.0,77,0.00,,,0.00,WeatherDisplay:10.37,2013-01-24 01:10:00,
2013-01-23 20:14:00,25.8,19.6,30.19,West,269,0.0,0.0,77,0.00,,,0.00,WeatherDisplay:10.37,2013-01-24 01:14:00,
2013-01-23 20:15:00,25.8,19.6,30.19,West,269,0.0,0.0,77,0.00,,,0.00,WeatherDisplay:10.37,2013-01-24 01:15:00,
2013-01-23 20:19:00,25.7,19.5,30.19,West,269,0.0,0.0,77,0.00,,,0.00,WeatherDisplay:10.37,2013-01-24 01:19:00,
2013-01-23 20:20:00,25.6,19.4,30.19,West,269,0.0,0.0,77,0.00,,,0.00,WeatherDisplay:10.37,2013-01-24 01:20:00,
2013-01-23 20:25:00,25.4,19.5,30.19,WNW,293,1.1,0.0,78,0.00,,,0.00,WeatherDisplay:10.37,2013-01-24 01:25:00,
2013-01-23 20:30:00,25.4,19.5,30.19,WNW,291,1.1,0.0,78,0.00,,,0.00,WeatherDisplay:10.37,2013-01-24 01:30:00,
2013-01-23 20:31:00,25.4,19.5,30.19,WNW,290,1.1,0.0,78,0.00,,,0.00,WeatherDisplay:10.37,2013-01-24 01:31:00,
2013-01-23 20:35:00,25.3,19.4,30.19,NNW,330,0.0,0.0,78,0.00,,,0.00,WeatherDisplay:10.37,2013-01-24 01:35:00,
2013-01-23 20:36:00,25.2,19.3,30.19,NW,316,0.0,0.0,78,0.00,,,0.00,WeatherDisplay:10.37,2013-01-24 01:36:00,
2013-01-23 20:41:00,25.4,19.5,30.19,WNW,302,0.0,0.0,78,0.00,,,0.00,WeatherDisplay:10.37,2013-01-24 01:41:00,
2013-01-23 20:42:00,25.4,19.5,30.19,West,267,1.1,1.1,78,0.00,,,0.00,WeatherDisplay:10.37,2013-01-24 01:42:00,
2013-01-23 20:46:00,25.9,20.0,30.18,WNW,289,2.3,2.3,78,0.00,,,0.00,WeatherDisplay:10.37,2013-01-24 01:46:00,
2013-01-23 20:47:00,26.1,19.9,30.18,WNW,289,2.3,2.3,77,0.00,,,0.00,WeatherDisplay:10.37,2013-01-24 01:47:00,
2013-01-23 20:51:00,26.7,20.1,30.18,West,274,1.1,1.1,76,0.00,,,0.00,WeatherDisplay:10.37,2013-01-24 01:51:00,
2013-01-23 20:52:00,26.8,19.9,30.18,West,274,1.1,0.0,75,0.00,,,0.00,WeatherDisplay:10.37,2013-01-24 01:52:00,
2013-01-23 20:56:00,26.9,20.0,30.18,West,273,1.1,0.0,75,0.00,,,0.00,WeatherDisplay:10.37,2013-01-24 01:56:00,
2013-01-23 20:57:00,26.9,20.0,30.18,WNW,301,2.3,2.3,75,0.00,,,0.00,WeatherDisplay:10.37,2013-01-24 01:57:00,
2013-01-23 20:58:00,27.0,20.1,30.18,WNW,300,1.1,0.0,75,0.00,,,0.00,WeatherDisplay:10.37,2013-01-24 01:58:00,
2013-01-23 21:01:00,27.1,20.2,30.18,WNW,283,1.1,1.1,75,0.00,,,0.00,WeatherDisplay:10.37,2013-01-24 02:01:00,
2013-01-23 21:02:00,27.0,20.1,30.18,WNW,283,0.0,0.1,75,0.00,,,0.00,WeatherDisplay:10.37,2013-01-24 02:02:00,
2013-01-23 21:03:00,27.0,20.1,30.18,WNW,284,1.1,0.0,75,0.00,,,0.00,WeatherDisplay:10.37,2013-01-24 02:03:00,
2013-01-23 21:06:00,26.9,20.0,30.18,West,268,1.1,1.1,75,0.00,,,0.00,WeatherDisplay:10.37,2013-01-24 02:06:00,
2013-01-23 21:07:00,26.9,20.0,30.18,West,269,1.1,1.1,75,0.00,,,0.00,WeatherDisplay:10.37,2013-01-24 02:07:00,
2013-01-23 21:09:00,26.9,20.0,30.18,West,269,0.0,0.0,75,0.00,,,0.00,WeatherDisplay:10.37,2013-01-24 02:09:00,
2013-01-23 21:11:00,26.8,19.9,30.18,West,268,0.0,0.0,75,0.00,,,0.00,WeatherDisplay:10.37,2013-01-24 02:11:00,
2013-01-23 21:12:00,26.8,19.9,30.18,West,268,1.1,0.0,75,0.00,,,0.00,WeatherDisplay:10.37,2013-01-24 02:12:00,
2013-01-23 21:13:00,26.8,19.9,30.18,West,269,1.1,0.0,75,0.00,,,0.00,WeatherDisplay:10.37,2013-01-24 02:13:00,
2013-01-23 21:14:00,26.7,19.8,30.18,West,268,1.1,1.1,75,0.00,,,0.00,WeatherDisplay:10.37,2013-01-24 02:14:00,
2013-01-23 21:16:00,26.6,20.1,30.18,West,269,0.0,0.0,76,0.00,,,0.00,WeatherDisplay:10.37,2013-01-24 02:16:00,
2013-01-23 21:17:00,26.6,20.1,30.18,West,268,1.0,0.0,76,0.00,,,0.00,WeatherDisplay:10.37,2013-01-24 02:17:00,
2013-01-23 21:18:00,26.5,20.0,30.18,West,269,1.1,0.0,76,0.00,,,0.00,WeatherDisplay:10.37,2013-01-24 02:18:00,
2013-01-23 21:19:00,26.3,19.8,30.18,West,268,1.1,0.0,76,0.00,,,0.00,WeatherDisplay:10.37,2013-01-24 02:19:00,
2013-01-23 21:22:00,26.1,19.6,30.18,West,268,0.0,0.0,76,0.00,,,0.00,WeatherDisplay:10.37,2013-01-24 02:22:00,
2013-01-23 21:23:00,25.9,19.4,30.18,West,268,0.0,0.0,76,0.00,,,0.00,WeatherDisplay:10.37,2013-01-24 02:23:00,
2013-01-23 21:25:00,25.8,19.3,30.18,West,268,0.0,0.0,76,0.00,,,0.00,WeatherDisplay:10.37,2013-01-24 02:25:00,
2013-01-23 21:27:00,25.6,19.4,30.18,West,268,0.0,0.0,77,0.00,,,0.00,WeatherDisplay:10.37,2013-01-24 02:27:00,
2013-01-23 21:28:00,25.5,19.3,30.18,West,268,0.0,0.0,77,0.00,,,0.00,WeatherDisplay:10.37,2013-01-24 02:28:00,
2013-01-23 21:30:00,25.3,19.4,30.18,West,268,0.0,0.0,78,0.00,,,0.00,WeatherDisplay:10.37,2013-01-24 02:30:00,
2013-01-23 21:32:00,25.2,19.3,30.18,West,268,0.0,0.0,78,0.00,,,0.00,WeatherDisplay:10.37,2013-01-24 02:32:00,
2013-01-23 21:33:00,25.2,19.3,30.18,West,268,0.0,0.0,78,0.00,,,0.00,WeatherDisplay:10.37,2013-01-24 02:33:00,
2013-01-23 21:35:00,25.2,19.3,30.18,West,268,0.0,0.0,78,0.00,,,0.00,WeatherDisplay:10.37,2013-01-24 02:35:00,
2013-01-23 21:37:00,25.3,19.7,30.18,West,269,0.0,0.0,79,0.00,,,0.00,WeatherDisplay:10.37,2013-01-24 02:37:00,
2013-01-23 21:38:00,25.3,19.7,30.18,West,268,1.1,0.0,79,0.00,,,0.00,WeatherDisplay:10.37,2013-01-24 02:38:00,
2013-01-23 21:39:00,25.3,19.4,30.18,West,268,1.1,0.0,78,0.00,,,0.00,WeatherDisplay:10.37,2013-01-24 02:39:00,
2013-01-23 21:40:00,25.3,19.4,30.18,West,269,0.0,0.0,78,0.00,,,0.00,WeatherDisplay:10.37,2013-01-24 02:40:00,
2013-01-23 21:42:00,25.2,19.3,30.17,West,268,0.0,0.0,78,0.00,,,0.00,WeatherDisplay:10.37,2013-01-24 02:42:00,
2013-01-23 21:43:00,25.2,19.3,30.17,West,268,1.0,0.0,78,0.00,,,0.00,WeatherDisplay:10.37,2013-01-24 02:43:00,
2013-01-23 21:44:00,25.1,19.5,30.17,West,268,1.1,1.1,79,0.00,,,0.00,WeatherDisplay:10.37,2013-01-24 02:44:00,
2013-01-23 21:45:00,25.1,19.5,30.17,West,268,0.0,0.0,79,0.00,,,0.00,WeatherDisplay:10.37,2013-01-24 02:45:00,
2013-01-23 21:48:00,25.1,19.5,30.17,West,268,1.1,0.0,79,0.00,,,0.00,WeatherDisplay:10.37,2013-01-24 02:48:00,
2013-01-23 21:49:00,25.0,19.4,30.17,West,276,1.1,1.1,79,0.00,,,0.00,WeatherDisplay:10.37,2013-01-24 02:49:00,
2013-01-23 21:50:00,25.1,19.5,30.17,WNW,283,1.1,1.1,79,0.00,,,0.00,WeatherDisplay:10.37,2013-01-24 02:50:00,
2013-01-23 21:53:00,25.3,19.7,30.17,WNW,286,0.0,0.0,79,0.00,,,0.00,WeatherDisplay:10.37,2013-01-24 02:53:00,
2013-01-23 21:55:00,25.4,19.8,30.16,WNW,286,0.0,0.0,79,0.00,,,0.00,WeatherDisplay:10.37,2013-01-24 02:55:00,
2013-01-23 21:58:00,25.5,19.9,30.16,West,269,2.3,2.3,79,0.00,,,0.00,WeatherDisplay:10.37,2013-01-24 02:58:00,
2013-01-23 22:00:00,25.7,20.1,30.16,NW,317,2.3,2.3,79,0.00,,,0.00,WeatherDisplay:10.37,2013-01-24 03:00:00,
2013-01-23 22:01:00,25.8,19.9,30.16,WNW,288,4.6,4.6,78,0.00,,,0.00,WeatherDisplay:10.37,2013-01-24 03:01:00,
2013-01-23 22:03:00,26.2,20.3,30.16,WNW,293,2.3,2.3,78,0.00,,,0.00,WeatherDisplay:10.37,2013-01-24 03:03:00,
2013-01-23 22:05:00,26.4,20.2,30.16,WNW,292,1.1,1.1,77,0.00,,,0.00,WeatherDisplay:10.37,2013-01-24 03:05:00,
2013-01-23 22:06:00,26.5,20.3,30.16,WNW,292,2.3,2.3,77,0.00,,,0.00,WeatherDisplay:10.37,2013-01-24 03:06:00,
2013-01-23 22:08:00,26.7,20.5,30.16,WNW,302,2.3,2.3,77,0.00,,,0.00,WeatherDisplay:10.37,2013-01-24 03:08:00,
2013-01-23 22:10:00,26.9,20.3,30.16,WNW,300,3.5,3.5,76,0.00,,,0.00,WeatherDisplay:10.37,2013-01-24 03:10:00,
2013-01-23 22:11:00,27.1,20.5,30.16,WNW,284,3.5,3.5,76,0.00,,,0.00,WeatherDisplay:10.37,2013-01-24 03:11:00,
2013-01-23 22:13:00,27.2,20.6,30.16,West,274,1.1,1.1,76,0.00,,,0.00,WeatherDisplay:10.37,2013-01-24 03:13:00,
2013-01-23 22:14:00,27.2,20.6,30.16,West,274,1.1,1.1,76,0.00,,,0.00,WeatherDisplay:10.37,2013-01-24 03:14:00,
2013-01-23 22:15:00,27.3,20.7,30.16,WNW,295,3.5,3.5,76,0.00,,,0.00,WeatherDisplay:10.37,2013-01-24 03:15:00,
2013-01-23 22:17:00,27.4,20.8,30.16,NW,306,3.5,3.5,76,0.00,,,0.00,WeatherDisplay:10.37,2013-01-24 03:17:00,
2013-01-23 22:19:00,27.6,20.7,30.16,WNW,292,2.3,2.3,75,0.00,,,0.00,WeatherDisplay:10.37,2013-01-24 03:19:00,
2013-01-23 22:20:00,27.6,20.7,30.16,WNW,293,2.3,2.3,75,0.00,,,0.00,WeatherDisplay:10.37,2013-01-24 03:20:00,
2013-01-23 22:22:00,27.6,20.7,30.16,WNW,286,3.5,3.5,75,0.00,,,0.00,WeatherDisplay:10.37,2013-01-24 03:22:00,
2013-01-23 22:24:00,27.7,20.8,30.16,West,267,1.0,0.0,75,0.00,,,0.00,WeatherDisplay:10.37,2013-01-24 03:24:00,
2013-01-23 22:25:00,27.7,20.8,30.16,WSW,250,2.3,2.3,75,0.00,,,0.00,WeatherDisplay:10.37,2013-01-24 03:25:00,
2013-01-23 22:27:00,27.7,20.8,30.16,WNW,294,2.3,2.3,75,0.00,,,0.00,WeatherDisplay:10.37,2013-01-24 03:27:00,
2013-01-23 22:29:00,27.8,20.9,30.16,NW,307,3.5,3.5,75,0.00,,,0.00,WeatherDisplay:10.37,2013-01-24 03:29:00,
2013-01-23 22:30:00,27.9,21.0,30.16,West,278,2.3,2.3,75,0.00,,,0.00,WeatherDisplay:10.37,2013-01-24 03:30:00,
2013-01-23 22:32:00,28.0,20.8,30.16,WSW,252,3.5,3.5,74,0.00,,,0.00,WeatherDisplay:10.37,2013-01-24 03:32:00,
2013-01-23 22:34:00,28.1,20.9,30.16,NW,306,3.5,3.5,74,0.00,,,0.00,WeatherDisplay:10.37,2013-01-24 03:34:00,
2013-01-23 22:35:00,28.1,20.9,30.16,NW,306,4.6,4.6,74,0.00,,,0.00,WeatherDisplay:10.37,2013-01-24 03:35:00,
2013-01-23 22:36:00,28.1,20.9,30.15,WNW,290,3.5,3.5,74,0.00,,,0.00,WeatherDisplay:10.37,2013-01-24 03:36:00,
2013-01-23 22:38:00,28.1,20.9,30.16,West,281,2.3,2.3,74,0.00,,,0.00,WeatherDisplay:10.37,2013-01-24 03:38:00,
2013-01-23 22:40:00,28.1,20.9,30.16,WNW,296,2.3,2.3,74,0.00,,,0.00,WeatherDisplay:10.37,2013-01-24 03:40:00,
2013-01-23 22:41:00,28.1,20.9,30.16,West,264,2.3,3.1,74,0.00,,,0.00,WeatherDisplay:10.37,2013-01-24 03:41:00,
2013-01-23 22:43:00,28.1,20.9,30.16,WNW,288,3.5,3.5,74,0.00,,,0.00,WeatherDisplay:10.37,2013-01-24 03:43:00,
2013-01-23 22:45:00,28.1,21.2,30.16,West,262,3.5,3.5,75,0.00,,,0.00,WeatherDisplay:10.37,2013-01-24 03:45:00,
2013-01-23 22:46:00,28.1,21.2,30.16,WNW,289,2.3,2.3,75,0.00,,,0.00,WeatherDisplay:10.37,2013-01-24 03:46:00,
2013-01-23 22:48:00,28.1,20.9,30.16,West,267,1.1,1.1,74,0.00,,,0.00,WeatherDisplay:10.37,2013-01-24 03:48:00,
2013-01-23 22:49:00,28.1,20.9,30.15,WNW,303,3.0,3.0,74,0.00,,,0.00,WeatherDisplay:10.37,2013-01-24 03:49:00,
2013-01-23 22:51:00,28.1,21.2,30.15,West,279,1.1,1.1,75,0.00,,,0.00,WeatherDisplay:10.37,2013-01-24 03:51:00,
2013-01-23 22:53:00,28.0,21.1,30.15,West,273,3.5,3.5,75,0.00,,,0.00,WeatherDisplay:10.37,2013-01-24 03:53:00,
2013-01-23 22:54:00,28.0,21.1,30.15,WSW,253,2.3,2.3,75,0.00,,,0.00,WeatherDisplay:10.37,2013-01-24 03:54:00,
2013-01-23 22:56:00,27.9,21.0,30.15,WSW,250,3.0,3.0,75,0.00,,,0.00,WeatherDisplay:10.37,2013-01-24 03:56:00,
2013-01-23 22:57:00,27.9,21.0,30.15,WSW,255,2.3,2.3,75,0.00,,,0.00,WeatherDisplay:10.37,2013-01-24 03:57:00,
2013-01-23 22:58:00,27.9,21.0,30.15,WNW,289,2.3,2.3,75,0.00,,,0.00,WeatherDisplay:10.37,2013-01-24 03:58:00,
2013-01-23 22:59:00,27.9,21.0,30.15,West,267,1.1,1.1,75,0.00,,,0.00,WeatherDisplay:10.37,2013-01-24 03:59:00,
2013-01-23 23:02:00,27.9,21.0,30.15,West,272,1.1,1.2,75,0.00,,,0.00,WeatherDisplay:10.37,2013-01-24 04:02:00,
2013-01-23 23:03:00,27.9,21.0,30.15,WSW,257,1.1,1.1,75,0.00,,,0.00,WeatherDisplay:10.37,2013-01-24 04:03:00,
2013-01-23 23:05:00,27.9,21.0,30.15,West,270,1.0,4.0,75,0.00,,,0.00,WeatherDisplay:10.37,2013-01-24 04:05:00,
2013-01-23 23:07:00,27.9,21.0,30.15,West,262,0.0,0.0,75,0.00,,,0.00,WeatherDisplay:10.37,2013-01-24 04:07:00,
2013-01-23 23:08:00,27.9,21.3,30.15,WSW,255,2.3,2.3,76,0.00,,,0.00,WeatherDisplay:10.37,2013-01-24 04:08:00,
2013-01-23 23:10:00,28.0,21.1,30.15,West,262,3.5,3.5,75,0.00,,,0.00,WeatherDisplay:10.37,2013-01-24 04:10:00,
2013-01-23 23:12:00,28.0,21.1,30.15,WSW,250,3.5,3.5,75,0.00,,,0.00,WeatherDisplay:10.37,2013-01-24 04:12:00,
2013-01-23 23:13:00,28.1,21.2,30.15,West,264,3.5,3.5,75,0.00,,,0.00,WeatherDisplay:10.37,2013-01-24 04:13:00,
2013-01-23 23:15:00,28.2,21.3,30.15,WSW,250,2.3,2.3,75,0.00,,,0.00,WeatherDisplay:10.37,2013-01-24 04:15:00,
2013-01-23 23:17:00,28.3,21.4,30.16,WSW,245,4.6,4.6,75,0.00,,,0.00,WeatherDisplay:10.37,2013-01-24 04:17:00,
2013-01-23 23:19:00,28.5,21.6,30.16,NW,307,3.5,3.5,75,0.00,,,0.00,WeatherDisplay:10.37,2013-01-24 04:19:00,
2013-01-23 23:20:00,28.6,21.7,30.15,WNW,296,3.5,3.5,75,0.00,,,0.00,WeatherDisplay:10.37,2013-01-24 04:20:00,
2013-01-23 23:22:00,28.8,21.9,30.15,NW,307,3.5,3.5,75,0.00,,,0.00,WeatherDisplay:10.37,2013-01-24 04:22:00,
2013-01-23 23:23:00,28.8,21.9,30.15,NW,313,4.6,4.6,75,0.00,,,0.00,WeatherDisplay:10.37,2013-01-24 04:23:00,
2013-01-23 23:24:00,28.9,22.0,30.15,WNW,299,4.6,4.6,75,0.00,,,0.00,WeatherDisplay:10.37,2013-01-24 04:24:00,
2013-01-23 23:25:00,29.0,22.1,30.15,WNW,294,4.6,4.6,75,0.00,,,0.00,WeatherDisplay:10.37,2013-01-24 04:25:00,
2013-01-23 23:28:00,29.2,22.3,30.15,West,264,3.5,3.5,75,0.00,,,0.00,WeatherDisplay:10.37,2013-01-24 04:28:00,
2013-01-23 23:29:00,29.2,22.3,30.15,West,264,3.5,3.5,75,0.00,,,0.00,WeatherDisplay:10.37,2013-01-24 04:29:00,
2013-01-23 23:31:00,29.4,22.5,30.16,West,268,3.5,3.5,75,0.00,,,0.00,WeatherDisplay:10.37,2013-01-24 04:31:00,
2013-01-23 23:33:00,29.5,22.2,30.15,WSW,243,4.6,4.6,74,0.00,,,0.00,WeatherDisplay:10.37,2013-01-24 04:33:00,
2013-01-23 23:34:00,29.6,22.3,30.15,WNW,290,3.5,3.5,74,0.00,,,0.00,WeatherDisplay:10.37,2013-01-24 04:34:00,
2013-01-23 23:36:00,29.7,22.1,30.15,West,267,4.6,4.6,73,0.00,,,0.00,WeatherDisplay:10.37,2013-01-24 04:36:00,
2013-01-23 23:38:00,29.8,22.2,30.15,WSW,252,10.4,10.4,73,0.00,,,0.00,WeatherDisplay:10.37,2013-01-24 04:38:00,
2013-01-23 23:39:00,29.8,22.2,30.15,WSW,245,4.6,4.6,73,0.00,,,0.00,WeatherDisplay:10.37,2013-01-24 04:39:00,
2013-01-23 23:41:00,29.9,22.3,30.15,WSW,245,3.5,3.5,73,0.00,,,0.00,WeatherDisplay:10.37,2013-01-24 04:41:00,
2013-01-23 23:43:00,30.0,22.4,30.15,West,265,4.6,4.6,73,0.00,,,0.00,WeatherDisplay:10.37,2013-01-24 04:43:00,
2013-01-23 23:44:00,30.0,22.7,30.15,WNW,293,8.1,8.1,74,0.00,,,0.00,WeatherDisplay:10.37,2013-01-24 04:44:00,
2013-01-23 23:45:00,30.1,22.8,30.14,WNW,300,8.1,8.1,74,0.00,,,0.00,WeatherDisplay:10.37,2013-01-24 04:45:00,
2013-01-23 23:47:00,30.2,22.6,30.15,WNW,302,6.9,6.9,73,0.00,,,0.00,WeatherDisplay:10.37,2013-01-24 04:47:00,
2013-01-23 23:48:00,30.4,22.8,30.14,WSW,246,6.9,6.9,73,0.00,,,0.00,WeatherDisplay:10.37,2013-01-24 04:48:00,
2013-01-23 23:49:00,30.4,22.8,30.14,WSW,250,4.6,4.6,73,0.00,,,0.00,WeatherDisplay:10.37,2013-01-24 04:49:00,
2013-01-23 23:50:00,30.4,22.8,30.14,WSW,257,4.6,4.6,73,0.00,,,0.00,WeatherDisplay:10.37,2013-01-24 04:50:00,
2013-01-23 23:52:00,30.6,23.0,30.14,West,265,3.5,3.5,73,0.00,,,0.00,WeatherDisplay:10.37,2013-01-24 04:52:00,
2013-01-23 23:53:00,30.7,23.1,30.14,West,264,5.8,5.8,73,0.00,,,0.00,WeatherDisplay:10.37,2013-01-24 04:53:00,
2013-01-23 23:54:00,30.8,23.2,30.14,West,268,3.5,3.5,73,0.00,,,0.00,WeatherDisplay:10.37,2013-01-24 04:54:00,
2013-01-23 23:55:00,30.8,23.2,30.14,West,267,3.5,3.5,73,0.00,,,0.00,WeatherDisplay:10.37,2013-01-24 04:55:00,
2013-01-23 23:57:00,31.0,23.0,30.14,WSW,245,10.4,10.4,72,0.00,,,0.00,WeatherDisplay:10.37,2013-01-24 04:57:00,
2013-01-23 23:58:00,31.2,23.2,30.14,West,260,10.4,10.4,72,0.00,,,0.00,WeatherDisplay:10.37,2013-01-24 04:58:00,
2013-01-23 23:59:00,31.5,23.2,30.14,WSW,251,5.8,5.8,71,0.00,,,0.00,WeatherDisplay:10.37,2013-01-24 04:59:00,